Wetterdaten: Donnerstag, 13.09.2018
Datum Zeit Temp. Aussen Temp. o. S. +5cm Feuchte Auss Luftdruck Regen Sonnenschein Regendauer Solar Windben Empfang
13.09.2018 00:00 15,3 C 14,4 C 15,0 C 90 % 1020,1 hPa 0,0 l/m 0 min 0 min 0 W/m 2,3 km/h (1 Bft) 97,87 %
13.09.2018 00:02 15,3 C 14,4 C 14,4 C 90 % 1020,1 hPa 0,0 l/m 0 min 0 min 0 W/m 2,3 km/h (1 Bft) 97,83 %
13.09.2018 00:04 15,4 C 14,4 C 14,4 C 90 % 1020,0 hPa 0,0 l/m 0 min 0 min 0 W/m 2,3 km/h (1 Bft) 95,74 %
13.09.2018 00:08 15,3 C 14,4 C 14,4 C 90 % 1019,9 hPa 0,0 l/m 0 min 0 min 0 W/m 6,8 km/h (2 Bft) 97,85 %
13.09.2018 00:10 15,3 C 14,4 C 14,4 C 90 % 1019,9 hPa 0,0 l/m 0 min 0 min 0 W/m 0,0 km/h (0 Bft) 95,74 %
13.09.2018 00:12 15,3 C 14,4 C 14,4 C 90 % 1019,9 hPa 0,0 l/m 0 min 0 min 0 W/m 2,3 km/h (1 Bft) 95,74 %
13.09.2018 00:14 15,3 C 14,4 C 14,4 C 90 % 1019,9 hPa 0,0 l/m 0 min 0 min 0 W/m 4,5 km/h (1 Bft) 95,74 %
13.09.2018 00:16 15,3 C 14,4 C 14,4 C 90 % 1019,9 hPa 0,0 l/m 0 min 0 min 0 W/m 0,0 km/h (0 Bft) 97,87 %
13.09.2018 00:18 15,3 C 14,4 C 14,4 C 90 % 1019,9 hPa 0,0 l/m 0 min 0 min 0 W/m 4,5 km/h (1 Bft) 97,14 %
13.09.2018 00:20 15,3 C 14,4 C 14,4 C 90 % 1019,8 hPa 0,0 l/m 0 min 0 min 0 W/m 2,3 km/h (1 Bft) 98,28 %
13.09.2018 00:22 15,3 C 14,4 C 14,4 C 90 % 1019,8 hPa 0,0 l/m 0 min 0 min 0 W/m 2,3 km/h (1 Bft) 97,30 %
13.09.2018 00:24 15,3 C 14,4 C 14,4 C 90 % 1019,8 hPa 0,0 l/m 0 min 0 min 0 W/m 2,3 km/h (1 Bft) 97,83 %
13.09.2018 00:26 15,3 C 14,4 C 14,4 C 90 % 1019,9 hPa 0,0 l/m 0 min 0 min 0 W/m 0,0 km/h (0 Bft) 97,87 %
13.09.2018 00:28 15,3 C 14,4 C 14,4 C 90 % 1019,9 hPa 0,0 l/m 0 min 0 min 0 W/m 2,3 km/h (1 Bft) 97,87 %
13.09.2018 00:30 15,3 C 14,4 C 14,4 C 90 % 1019,9 hPa 0,0 l/m 0 min 0 min 0 W/m 2,3 km/h (1 Bft) 97,87 %
13.09.2018 00:32 15,3 C 14,4 C 14,4 C 90 % 1020,0 hPa 0,0 l/m 0 min 0 min 0 W/m 2,3 km/h (1 Bft) 97,92 %
13.09.2018 00:34 15,3 C 14,4 C 14,4 C 90 % 1020,0 hPa 0,0 l/m 0 min 0 min 0 W/m 2,3 km/h (1 Bft) 95,74 %
13.09.2018 00:36 15,3 C 14,4 C 14,4 C 90 % 1020,0 hPa 0,0 l/m 0 min 0 min 0 W/m 2,3 km/h (1 Bft) 97,92 %
13.09.2018 00:38 15,3 C 14,4 C 14,4 C 90 % 1020,0 hPa 0,0 l/m 0 min 0 min 0 W/m 0,0 km/h (0 Bft) 97,87 %
13.09.2018 00:40 15,3 C 14,4 C 14,4 C 90 % 1020,0 hPa 0,0 l/m 0 min 0 min 0 W/m 6,8 km/h (2 Bft) 95,74 %
13.09.2018 00:42 15,3 C 14,4 C 14,4 C 90 % 1020,1 hPa 0,0 l/m 0 min 0 min 0 W/m 6,8 km/h (2 Bft) 97,87 %
13.09.2018 00:44 15,3 C 14,4 C 14,4 C 90 % 1020,0 hPa 0,0 l/m 0 min 0 min 0 W/m 6,8 km/h (2 Bft) 97,87 %
13.09.2018 00:46 15,3 C 14,4 C 14,4 C 90 % 1020,0 hPa 0,0 l/m 0 min 0 min 0 W/m 4,5 km/h (1 Bft) 100,00 %
13.09.2018 00:48 15,3 C 14,4 C 14,4 C 90 % 1020,1 hPa 0,0 l/m 0 min 0 min 0 W/m 2,3 km/h (1 Bft) 97,87 %
13.09.2018 00:50 15,2 C 14,4 C 14,4 C 90 % 1020,1 hPa 0,0 l/m 0 min 0 min 0 W/m 4,5 km/h (1 Bft) 100,00 %
13.09.2018 00:52 15,3 C 14,4 C 14,4 C 90 % 1020,0 hPa 0,0 l/m 0 min 0 min 0 W/m 0,0 km/h (0 Bft) 100,00 %
13.09.2018 00:54 15,2 C 14,4 C 14,4 C 90 % 1020,0 hPa 0,0 l/m 0 min 0 min 0 W/m 2,3 km/h (1 Bft) 100,00 %
13.09.2018 00:56 15,2 C 14,4 C 14,4 C 90 % 1020,1 hPa 0,0 l/m 0 min 0 min 0 W/m 2,3 km/h (1 Bft) 100,00 %
13.09.2018 00:58 15,2 C 14,4 C 14,4 C 90 % 1020,1 hPa 0,0 l/m 0 min 0 min 0 W/m 0,0 km/h (0 Bft) 97,83 %
13.09.2018 01:00 15,2 C 14,4 C 14,4 C 90 % 1020,1 hPa 0,0 l/m 0 min 0 min 0 W/m 6,8 km/h (2 Bft) 100,00 %
13.09.2018 01:02 15,2 C 14,4 C 14,4 C 90 % 1020,0 hPa 0,0 l/m 0 min 0 min 0 W/m 2,3 km/h (1 Bft) 100,00 %
13.09.2018 01:04 15,2 C 14,4 C 14,4 C 90 % 1020,0 hPa 0,0 l/m 0 min 0 min 0 W/m 2,3 km/h (1 Bft) 100,00 %
13.09.2018 01:08 15,2 C 14,4 C 14,4 C 90 % 1020,0 hPa 0,0 l/m 0 min 0 min 0 W/m 6,8 km/h (2 Bft) 96,47 %
13.09.2018 01:10 15,2 C 14,4 C 14,4 C 90 % 1020,0 hPa 0,0 l/m 0 min 0 min 0 W/m 0,0 km/h (0 Bft) 97,83 %
13.09.2018 01:12 15,2 C 14,4 C 14,4 C 90 % 1019,9 hPa 0,0 l/m 0 min 0 min 0 W/m 0,0 km/h (0 Bft) 97,87 %
13.09.2018 01:14 15,2 C 14,4 C 14,4 C 90 % 1019,9 hPa 0,0 l/m 0 min 0 min 0 W/m 4,5 km/h (1 Bft) 97,87 %
13.09.2018 01:16 15,2 C 14,4 C 14,4 C 90 % 1019,9 hPa 0,0 l/m 0 min 0 min 0 W/m 0,0 km/h (0 Bft) 93,62 %
13.09.2018 01:18 15,2 C 14,4 C 14,4 C 90 % 1019,8 hPa 0,0 l/m 0 min 0 min 0 W/m 2,3 km/h (1 Bft) 97,87 %
13.09.2018 01:20 15,2 C 14,4 C 14,4 C 90 % 1019,8 hPa 0,0 l/m 0 min 0 min 0 W/m 2,3 km/h (1 Bft) 97,87 %
13.09.2018 01:22 15,2 C 14,4 C 14,4 C 90 % 1019,7 hPa 0,0 l/m 0 min 0 min 0 W/m 4,5 km/h (1 Bft) 97,83 %
13.09.2018 01:24 15,2 C 14,4 C 14,4 C 90 % 1019,7 hPa 0,0 l/m 0 min 0 min 0 W/m 2,3 km/h (1 Bft) 97,87 %
13.09.2018 01:26 15,2 C 14,4 C 14,4 C 90 % 1019,7 hPa 0,0 l/m 0 min 0 min 0 W/m 6,8 km/h (2 Bft) 97,87 %
13.09.2018 01:28 15,2 C 14,4 C 14,4 C 90 % 1019,7 hPa 0,0 l/m 0 min 2 min 0 W/m 4,5 km/h (1 Bft) 97,87 %
13.09.2018 01:30 15,1 C 14,4 C 14,4 C 90 % 1019,6 hPa 0,0 l/m 0 min 2 min 0 W/m 2,3 km/h (1 Bft) 97,87 %
13.09.2018 01:32 15,2 C 14,4 C 14,4 C 90 % 1019,6 hPa 0,0 l/m 0 min 2 min 0 W/m 4,5 km/h (1 Bft) 93,75 %
13.09.2018 01:34 15,1 C 13,9 C 13,9 C 90 % 1019,6 hPa 0,0 l/m 0 min 2 min 0 W/m 4,5 km/h (1 Bft) 95,74 %
13.09.2018 01:36 15,1 C 13,9 C 13,9 C 90 % 1019,6 hPa 0,0 l/m 0 min 2 min 0 W/m 4,5 km/h (1 Bft) 95,92 %
13.09.2018 01:38 15,1 C 13,9 C 13,9 C 90 % 1019,6 hPa 0,0 l/m 0 min 2 min 0 W/m 4,5 km/h (1 Bft) 95,74 %
13.09.2018 01:40 15,1 C 13,9 C 13,9 C 90 % 1019,6 hPa 0,0 l/m 0 min 2 min 0 W/m 0,0 km/h (0 Bft) 97,87 %
13.09.2018 01:42 15,1 C 13,9 C 13,9 C 90 % 1019,5 hPa 0,0 l/m 0 min 2 min 0 W/m 2,3 km/h (1 Bft) 95,74 %
13.09.2018 01:44 15,1 C 13,9 C 13,9 C 90 % 1019,4 hPa 0,0 l/m 0 min 2 min 0 W/m 4,5 km/h (1 Bft) 95,65 %
13.09.2018 01:46 15,1 C 13,9 C 13,9 C 90 % 1019,3 hPa 0,0 l/m 0 min 2 min 0 W/m 4,5 km/h (1 Bft) 97,87 %
13.09.2018 01:48 15,1 C 13,3 C 13,9 C 90 % 1019,4 hPa 0,0 l/m 0 min 2 min 0 W/m 4,5 km/h (1 Bft) 95,74 %
13.09.2018 01:50 15,1 C 13,3 C 13,9 C 90 % 1019,5 hPa 0,0 l/m 0 min 2 min 0 W/m 6,8 km/h (2 Bft) 93,62 %
13.09.2018 01:52 15,1 C 13,3 C 13,9 C 90 % 1019,4 hPa 0,0 l/m 0 min 2 min 0 W/m 2,3 km/h (1 Bft) 93,62 %
13.09.2018 01:54 15,1 C 13,3 C 13,3 C 90 % 1019,5 hPa 0,0 l/m 0 min 2 min 0 W/m 2,3 km/h (1 Bft) 95,74 %
13.09.2018 01:56 15,0 C 13,3 C 13,3 C 90 % 1019,5 hPa 0,0 l/m 0 min 2 min 0 W/m 2,3 km/h (1 Bft) 97,83 %
13.09.2018 01:58 15,0 C 13,3 C 13,3 C 90 % 1019,5 hPa 0,0 l/m 0 min 2 min 0 W/m 2,3 km/h (1 Bft) 97,87 %
13.09.2018 02:00 15,0 C 13,3 C 13,3 C 90 % 1019,6 hPa 0,0 l/m 0 min 2 min 0 W/m 2,3 km/h (1 Bft) 95,74 %
13.09.2018 02:02 15,0 C 13,3 C 13,3 C 90 % 1019,6 hPa 0,0 l/m 0 min 2 min 0 W/m 2,3 km/h (1 Bft) 97,87 %
13.09.2018 02:04 15,0 C 13,3 C 13,3 C 90 % 1019,7 hPa 0,0 l/m 0 min 2 min 0 W/m 2,3 km/h (1 Bft) 93,62 %
13.09.2018 02:06 14,9 C 13,3 C 13,3 C 91 % 1019,6 hPa 0,0 l/m 0 min 2 min 0 W/m 2,3 km/h (1 Bft) 97,87 %
13.09.2018 02:08 14,9 C 13,3 C 13,3 C 91 % 1019,6 hPa 0,0 l/m 0 min 2 min 0 W/m 4,5 km/h (1 Bft) 95,65 %
13.09.2018 02:10 14,9 C 13,3 C 13,3 C 91 % 1019,6 hPa 0,0 l/m 0 min 2 min 0 W/m 4,5 km/h (1 Bft) 97,87 %
13.09.2018 02:12 14,9 C 12,8 C 12,8 C 91 % 1019,6 hPa 0,0 l/m 0 min 2 min 0 W/m 2,3 km/h (1 Bft) 97,87 %
13.09.2018 02:14 14,9 C 12,8 C 12,8 C 91 % 1019,6 hPa 0,0 l/m 0 min 2 min 0 W/m 2,3 km/h (1 Bft) 97,87 %
13.09.2018 02:16 14,9 C 12,8 C 12,8 C 91 % 1019,6 hPa 0,0 l/m 0 min 2 min 0 W/m 0,0 km/h (0 Bft) 95,74 %
13.09.2018 02:18 14,9 C 12,8 C 12,8 C 91 % 1019,6 hPa 0,0 l/m 0 min 2 min 0 W/m 2,3 km/h (1 Bft) 97,83 %
13.09.2018 02:20 14,9 C 12,8 C 12,8 C 91 % 1019,6 hPa 0,0 l/m 0 min 2 min 0 W/m 2,3 km/h (1 Bft) 97,87 %
13.09.2018 02:22 14,8 C 12,8 C 12,8 C 91 % 1019,5 hPa 0,0 l/m 0 min 2 min 0 W/m 2,3 km/h (1 Bft) 97,87 %
13.09.2018 02:24 14,8 C 12,8 C 12,8 C 91 % 1019,6 hPa 0,2 l/m 0 min 2 min 0 W/m 2,3 km/h (1 Bft) 93,62 %
13.09.2018 02:26 14,8 C 12,8 C 12,8 C 92 % 1019,5 hPa 0,0 l/m 0 min 2 min 0 W/m 9,0 km/h (2 Bft) 95,74 %
13.09.2018 02:28 14,8 C 12,8 C 12,8 C 92 % 1019,6 hPa 0,0 l/m 0 min 2 min 0 W/m 9,0 km/h (2 Bft) 97,87 %
13.09.2018 02:30 14,8 C 12,8 C 12,8 C 92 % 1019,5 hPa 0,0 l/m 0 min 2 min 0 W/m 4,5 km/h (1 Bft) 97,83 %
13.09.2018 02:32 14,7 C 12,8 C 12,8 C 92 % 1019,5 hPa 0,0 l/m 0 min 2 min 0 W/m 4,5 km/h (1 Bft) 97,92 %
13.09.2018 02:34 14,7 C 12,8 C 12,8 C 92 % 1019,5 hPa 0,0 l/m 0 min 2 min 0 W/m 2,3 km/h (1 Bft) 97,87 %
13.09.2018 02:36 14,7 C 12,8 C 12,8 C 92 % 1019,5 hPa 0,0 l/m 0 min 2 min 0 W/m 4,5 km/h (1 Bft) 97,67 %
13.09.2018 02:38 14,7 C 12,8 C 12,8 C 92 % 1019,5 hPa 0,0 l/m 0 min 2 min 0 W/m 2,3 km/h (1 Bft) 100,00 %
13.09.2018 02:40 14,7 C 12,8 C 12,8 C 92 % 1019,5 hPa 0,0 l/m 0 min 2 min 0 W/m 2,3 km/h (1 Bft) 100,00 %
13.09.2018 02:42 14,6 C 12,8 C 12,8 C 92 % 1019,6 hPa 0,2 l/m 0 min 2 min 0 W/m 0,0 km/h (0 Bft) 100,00 %
13.09.2018 02:44 14,6 C 12,8 C 12,8 C 92 % 1019,6 hPa 0,0 l/m 0 min 2 min 0 W/m 2,3 km/h (1 Bft) 100,00 %
13.09.2018 02:46 14,6 C 12,8 C 12,8 C 92 % 1019,6 hPa 0,0 l/m 0 min 2 min 0 W/m 4,5 km/h (1 Bft) 100,00 %
13.09.2018 02:48 14,6 C 12,8 C 12,8 C 92 % 1019,6 hPa 0,0 l/m 0 min 2 min 0 W/m 2,3 km/h (1 Bft) 100,00 %
13.09.2018 02:50 14,6 C 12,8 C 12,8 C 92 % 1019,6 hPa 0,0 l/m 0 min 2 min 0 W/m 0,0 km/h (0 Bft) 100,00 %
13.09.2018 02:52 14,5 C 12,8 C 12,8 C 92 % 1019,6 hPa 0,0 l/m 0 min 2 min 0 W/m 0,0 km/h (0 Bft) 100,00 %
13.09.2018 02:54 14,5 C 12,8 C 12,8 C 92 % 1019,6 hPa 0,2 l/m 0 min 2 min 0 W/m 4,5 km/h (1 Bft) 100,00 %
13.09.2018 02:56 14,5 C 12,8 C 12,8 C 92 % 1019,6 hPa 0,0 l/m 0 min 2 min 0 W/m 0,0 km/h (0 Bft) 100,00 %
13.09.2018 02:58 14,5 C 12,8 C 12,8 C 92 % 1019,6 hPa 0,0 l/m 0 min 2 min 0 W/m 0,0 km/h (0 Bft) 100,00 %
13.09.2018 03:00 14,4 C 12,8 C 12,8 C 93 % 1019,6 hPa 0,2 l/m 0 min 2 min 0 W/m 0,0 km/h (0 Bft) 97,87 %
13.09.2018 03:02 14,4 C 12,8 C 12,8 C 93 % 1019,6 hPa 0,0 l/m 0 min 2 min 0 W/m 0,0 km/h (0 Bft) 100,00 %
13.09.2018 03:04 14,4 C 12,8 C 12,8 C 93 % 1019,5 hPa 0,0 l/m 0 min 2 min 0 W/m 2,3 km/h (1 Bft) 97,87 %
13.09.2018 03:08 14,4 C 12,8 C 12,8 C 93 % 1019,5 hPa 0,2 l/m 0 min 4 min 0 W/m 2,3 km/h (1 Bft) 98,96 %
13.09.2018 03:10 14,4 C 12,8 C 12,8 C 93 % 1019,4 hPa 0,0 l/m 0 min 2 min 0 W/m 4,5 km/h (1 Bft) 100,00 %
13.09.2018 03:12 14,4 C 12,8 C 12,8 C 93 % 1019,4 hPa 0,0 l/m 0 min 2 min 0 W/m 0,0 km/h (0 Bft) 100,00 %
13.09.2018 03:14 14,4 C 12,8 C 12,8 C 93 % 1019,3 hPa 0,0 l/m 0 min 2 min 0 W/m 0,0 km/h (0 Bft) 100,00 %
13.09.2018 03:16 14,3 C 12,8 C 12,8 C 93 % 1019,3 hPa 0,0 l/m 0 min 2 min 0 W/m 2,3 km/h (1 Bft) 100,00 %
13.09.2018 03:18 14,3 C 12,8 C 12,8 C 93 % 1019,2 hPa 0,0 l/m 0 min 2 min 0 W/m 4,5 km/h (1 Bft) 100,00 %
13.09.2018 03:20 14,3 C 12,8 C 12,8 C 93 % 1019,2 hPa 0,0 l/m 0 min 2 min 0 W/m 2,3 km/h (1 Bft) 97,87 %
13.09.2018 03:22 14,3 C 12,8 C 12,8 C 93 % 1019,2 hPa 0,0 l/m 0 min 2 min 0 W/m 2,3 km/h (1 Bft) 100,00 %
13.09.2018 03:24 14,3 C 12,8 C 12,8 C 94 % 1019,2 hPa 0,0 l/m 0 min 2 min 0 W/m 6,8 km/h (2 Bft) 100,00 %
13.09.2018 03:26 14,2 C 12,8 C 12,8 C 93 % 1019,2 hPa 0,0 l/m 0 min 2 min 0 W/m 2,3 km/h (1 Bft) 100,00 %
13.09.2018 03:28 14,2 C 12,8 C 12,8 C 93 % 1019,2 hPa 0,0 l/m 0 min 2 min 0 W/m 0,0 km/h (0 Bft) 100,00 %
13.09.2018 03:30 14,2 C 12,8 C 12,8 C 94 % 1019,1 hPa 0,0 l/m 0 min 2 min 0 W/m 4,5 km/h (1 Bft) 100,00 %
13.09.2018 03:32 14,2 C 12,8 C 12,8 C 94 % 1019,1 hPa 0,0 l/m 0 min 2 min 0 W/m 2,3 km/h (1 Bft) 97,14 %
13.09.2018 03:34 14,2 C 12,8 C 12,8 C 94 % 1019,1 hPa 0,2 l/m 0 min 2 min 0 W/m 4,5 km/h (1 Bft) 97,87 %
13.09.2018 03:36 14,2 C 12,8 C 12,8 C 94 % 1019,1 hPa 0,0 l/m 0 min 2 min 0 W/m 2,3 km/h (1 Bft) 97,73 %
13.09.2018 03:38 14,2 C 12,8 C 12,8 C 94 % 1019,0 hPa 0,0 l/m 0 min 0 min 0 W/m 4,5 km/h (1 Bft) 98,00 %
13.09.2018 03:40 14,2 C 12,8 C 12,8 C 94 % 1019,0 hPa 0,0 l/m 0 min 0 min 0 W/m 2,3 km/h (1 Bft) 97,87 %
13.09.2018 03:42 14,2 C 12,8 C 12,8 C 94 % 1019,0 hPa 0,0 l/m 0 min 0 min 0 W/m 2,3 km/h (1 Bft) 97,87 %
13.09.2018 03:44 14,2 C 12,8 C 12,8 C 94 % 1019,0 hPa 0,0 l/m 0 min 2 min 0 W/m 2,3 km/h (1 Bft) 97,83 %
13.09.2018 03:46 14,2 C 12,8 C 12,8 C 94 % 1018,9 hPa 0,0 l/m 0 min 2 min 0 W/m 2,3 km/h (1 Bft) 97,87 %
13.09.2018 03:48 14,2 C 12,8 C 12,8 C 94 % 1018,9 hPa 0,0 l/m 0 min 0 min 0 W/m 4,5 km/h (1 Bft) 95,74 %
13.09.2018 03:50 14,2 C 12,8 C 12,8 C 94 % 1018,8 hPa 0,0 l/m 0 min 2 min 0 W/m 4,5 km/h (1 Bft) 97,87 %
13.09.2018 03:52 14,2 C 12,8 C 12,8 C 94 % 1018,8 hPa 0,0 l/m 0 min 2 min 0 W/m 2,3 km/h (1 Bft) 97,87 %
13.09.2018 03:54 14,2 C 12,8 C 12,8 C 94 % 1018,8 hPa 0,0 l/m 0 min 2 min 0 W/m 0,0 km/h (0 Bft) 97,87 %
13.09.2018 03:56 14,1 C 12,8 C 12,8 C 94 % 1018,9 hPa 0,0 l/m 0 min 2 min 0 W/m 2,3 km/h (1 Bft) 97,83 %
13.09.2018 03:58 14,1 C 12,8 C 12,8 C 94 % 1018,9 hPa 0,0 l/m 0 min 2 min 0 W/m 0,0 km/h (0 Bft) 97,87 %
13.09.2018 04:00 14,1 C 12,8 C 12,8 C 94 % 1018,9 hPa 0,0 l/m 0 min 2 min 0 W/m 0,0 km/h (0 Bft) 97,87 %
13.09.2018 04:05 14,0 C 12,8 C 12,8 C 95 % 1019,0 hPa 0,0 l/m 0 min 5 min 0 W/m 4,5 km/h (1 Bft) 96,55 %
13.09.2018 04:06 14,0 C 12,8 C 12,8 C 94 % 1019,0 hPa 0,0 l/m 0 min 1 min 0 W/m 0,0 km/h (0 Bft) 90,91 %
13.09.2018 04:08 14,0 C 12,8 C 12,8 C 94 % 1019,0 hPa 0,0 l/m 0 min 2 min 0 W/m 0,0 km/h (0 Bft) 100,00 %
13.09.2018 04:10 14,0 C 12,8 C 12,8 C 94 % 1019,0 hPa 0,0 l/m 0 min 2 min 0 W/m 2,3 km/h (1 Bft) 93,62 %
13.09.2018 04:12 13,9 C 12,8 C 12,8 C 95 % 1018,9 hPa 0,0 l/m 0 min 2 min 0 W/m 2,3 km/h (1 Bft) 93,62 %
13.09.2018 04:14 13,9 C 12,8 C 12,8 C 95 % 1018,8 hPa 0,0 l/m 0 min 2 min 0 W/m 2,3 km/h (1 Bft) 93,62 %
13.09.2018 04:16 13,9 C 12,8 C 12,8 C 95 % 1018,8 hPa 0,0 l/m 0 min 2 min 0 W/m 0,0 km/h (0 Bft) 95,74 %
13.09.2018 04:18 13,9 C 12,8 C 12,8 C 95 % 1018,9 hPa 0,2 l/m 0 min 2 min 0 W/m 4,5 km/h (1 Bft) 95,65 %
13.09.2018 04:20 13,9 C 12,8 C 12,8 C 95 % 1018,9 hPa 0,0 l/m 0 min 2 min 0 W/m 2,3 km/h (1 Bft) 91,49 %
13.09.2018 04:22 13,9 C 12,8 C 12,8 C 95 % 1018,9 hPa 0,0 l/m 0 min 2 min 0 W/m 0,0 km/h (0 Bft) 93,62 %
13.09.2018 04:24 13,9 C 12,8 C 12,8 C 95 % 1018,9 hPa 0,0 l/m 0 min 2 min 0 W/m 2,3 km/h (1 Bft) 95,74 %
13.09.2018 04:26 13,9 C 12,8 C 12,8 C 95 % 1019,0 hPa 0,0 l/m 0 min 2 min 0 W/m 6,8 km/h (2 Bft) 93,62 %
13.09.2018 04:28 13,9 C 12,8 C 12,8 C 95 % 1018,9 hPa 0,0 l/m 0 min 2 min 0 W/m 2,3 km/h (1 Bft) 91,49 %
13.09.2018 04:30 13,9 C 12,8 C 12,8 C 95 % 1018,9 hPa 0,0 l/m 0 min 2 min 0 W/m 2,3 km/h (1 Bft) 93,48 %
13.09.2018 04:32 13,9 C 12,8 C 12,8 C 95 % 1018,9 hPa 0,0 l/m 0 min 2 min 0 W/m 0,0 km/h (0 Bft) 93,62 %
13.09.2018 04:34 13,8 C 12,8 C 12,8 C 95 % 1018,9 hPa 0,0 l/m 0 min 2 min 0 W/m 0,0 km/h (0 Bft) 93,62 %
13.09.2018 04:36 13,8 C 12,8 C 12,8 C 95 % 1018,9 hPa 0,0 l/m 0 min 2 min 0 W/m 0,0 km/h (0 Bft) 94,64 %
13.09.2018 04:38 13,8 C 12,8 C 12,8 C 95 % 1018,8 hPa 0,2 l/m 0 min 2 min 0 W/m 0,0 km/h (0 Bft) 91,49 %
13.09.2018 04:40 13,8 C 12,8 C 12,8 C 95 % 1018,8 hPa 0,0 l/m 0 min 2 min 0 W/m 0,0 km/h (0 Bft) 95,65 %
13.09.2018 04:42 13,8 C 12,8 C 12,8 C 95 % 1018,8 hPa 0,0 l/m 0 min 2 min 0 W/m 0,0 km/h (0 Bft) 91,49 %
13.09.2018 04:44 13,8 C 12,8 C 12,8 C 95 % 1018,9 hPa 0,0 l/m 0 min 2 min 0 W/m 0,0 km/h (0 Bft) 95,74 %
13.09.2018 04:46 13,8 C 12,8 C 12,8 C 95 % 1018,9 hPa 0,0 l/m 0 min 2 min 0 W/m 0,0 km/h (0 Bft) 95,74 %
13.09.2018 04:48 13,8 C 12,8 C 12,8 C 95 % 1018,7 hPa 0,0 l/m 0 min 2 min 0 W/m 0,0 km/h (0 Bft) 97,87 %
13.09.2018 04:50 13,8 C 12,8 C 12,8 C 95 % 1018,7 hPa 0,0 l/m 0 min 2 min 0 W/m 0,0 km/h (0 Bft) 95,74 %
13.09.2018 04:52 13,8 C 12,8 C 12,8 C 95 % 1018,6 hPa 0,0 l/m 0 min 2 min 0 W/m 0,0 km/h (0 Bft) 95,65 %
13.09.2018 04:54 13,8 C 12,8 C 12,8 C 95 % 1018,8 hPa 0,0 l/m 0 min 2 min 0 W/m 0,0 km/h (0 Bft) 97,87 %
13.09.2018 04:56 13,8 C 12,8 C 12,8 C 95 % 1018,9 hPa 0,0 l/m 0 min 2 min 0 W/m 0,0 km/h (0 Bft) 97,87 %
13.09.2018 04:58 13,7 C 12,8 C 12,8 C 95 % 1018,9 hPa 0,0 l/m 0 min 0 min 0 W/m 0,0 km/h (0 Bft) 97,87 %
13.09.2018 05:00 13,7 C 12,8 C 12,2 C 95 % 1018,9 hPa 0,0 l/m 0 min 0 min 0 W/m 0,0 km/h (0 Bft) 93,62 %
13.09.2018 05:02 13,7 C 12,8 C 12,8 C 95 % 1018,9 hPa 0,0 l/m 0 min 0 min 0 W/m 0,0 km/h (0 Bft) 97,92 %
13.09.2018 05:04 13,7 C 12,8 C 12,8 C 95 % 1018,9 hPa 0,0 l/m 0 min 0 min 0 W/m 0,0 km/h (0 Bft) 97,87 %
13.09.2018 05:06 13,7 C 12,8 C 12,8 C 95 % 1019,0 hPa 0,0 l/m 0 min 0 min 0 W/m 0,0 km/h (0 Bft) 97,92 %
13.09.2018 05:08 13,7 C 12,8 C 12,8 C 95 % 1019,0 hPa 0,0 l/m 0 min 0 min 0 W/m 0,0 km/h (0 Bft) 93,62 %
13.09.2018 05:10 13,7 C 12,8 C 12,8 C 95 % 1018,9 hPa 0,0 l/m 0 min 0 min 0 W/m 0,0 km/h (0 Bft) 97,87 %
13.09.2018 05:12 13,7 C 12,8 C 12,8 C 95 % 1019,0 hPa 0,0 l/m 0 min 0 min 0 W/m 0,0 km/h (0 Bft) 100,00 %
13.09.2018 05:14 13,7 C 12,8 C 12,8 C 96 % 1018,9 hPa 0,0 l/m 0 min 0 min 0 W/m 0,0 km/h (0 Bft) 97,83 %
13.09.2018 05:16 13,7 C 12,8 C 12,8 C 96 % 1018,9 hPa 0,0 l/m 0 min 0 min 0 W/m 0,0 km/h (0 Bft) 100,00 %
13.09.2018 05:18 13,7 C 12,8 C 12,8 C 96 % 1018,9 hPa 0,0 l/m 0 min 0 min 0 W/m 0,0 km/h (0 Bft) 100,00 %
13.09.2018 05:20 13,7 C 12,8 C 12,8 C 96 % 1018,9 hPa 0,0 l/m 0 min 0 min 0 W/m 0,0 km/h (0 Bft) 100,00 %
13.09.2018 05:22 13,7 C 12,8 C 12,8 C 96 % 1019,0 hPa 0,0 l/m 0 min 0 min 0 W/m 0,0 km/h (0 Bft) 100,00 %
13.09.2018 05:24 13,7 C 12,8 C 12,8 C 96 % 1019,0 hPa 0,0 l/m 0 min 0 min 0 W/m 0,0 km/h (0 Bft) 97,87 %
13.09.2018 05:26 13,7 C 12,8 C 12,8 C 96 % 1018,9 hPa 0,0 l/m 0 min 0 min 0 W/m 0,0 km/h (0 Bft) 100,00 %
13.09.2018 05:28 13,7 C 12,8 C 12,8 C 96 % 1019,0 hPa 0,0 l/m 0 min 0 min 0 W/m 0,0 km/h (0 Bft) 100,00 %
13.09.2018 05:30 13,7 C 12,8 C 12,8 C 96 % 1019,0 hPa 0,0 l/m 0 min 0 min 0 W/m 0,0 km/h (0 Bft) 100,00 %
13.09.2018 05:32 13,7 C 12,8 C 12,8 C 96 % 1018,9 hPa 0,0 l/m 0 min 0 min 0 W/m 0,0 km/h (0 Bft) 100,00 %
13.09.2018 05:34 13,7 C 12,8 C 12,8 C 96 % 1018,9 hPa 0,0 l/m 0 min 0 min 0 W/m 0,0 km/h (0 Bft) 100,00 %
13.09.2018 05:36 13,7 C 12,8 C 12,8 C 96 % 1018,9 hPa 0,0 l/m 0 min 0 min 0 W/m 9,0 km/h (2 Bft) 100,00 %
13.09.2018 05:38 13,7 C 12,8 C 12,8 C 96 % 1018,9 hPa 0,0 l/m 0 min 0 min 0 W/m 0,0 km/h (0 Bft) 100,00 %
13.09.2018 05:40 13,7 C 12,8 C 12,2 C 96 % 1018,9 hPa 0,0 l/m 0 min 0 min 0 W/m 0,0 km/h (0 Bft) 100,00 %
13.09.2018 05:42 13,7 C 12,8 C 12,2 C 96 % 1018,9 hPa 0,0 l/m 0 min 0 min 0 W/m 4,5 km/h (1 Bft) 100,00 %
13.09.2018 05:44 13,7 C 12,8 C 12,8 C 96 % 1018,9 hPa 0,0 l/m 0 min 0 min 0 W/m 0,0 km/h (0 Bft) 100,00 %
13.09.2018 05:46 13,7 C 12,8 C 12,8 C 96 % 1018,8 hPa 0,0 l/m 0 min 0 min 0 W/m 0,0 km/h (0 Bft) 100,00 %
13.09.2018 05:48 13,7 C 12,8 C 12,8 C 96 % 1018,8 hPa 0,0 l/m 0 min 0 min 0 W/m 2,3 km/h (1 Bft) 100,00 %
13.09.2018 05:50 13,7 C 12,8 C 12,2 C 96 % 1018,8 hPa 0,0 l/m 0 min 0 min 0 W/m 2,3 km/h (1 Bft) 97,83 %
13.09.2018 05:52 13,7 C 12,8 C 12,2 C 96 % 1018,8 hPa 0,0 l/m 0 min 0 min 0 W/m 4,5 km/h (1 Bft) 100,00 %
13.09.2018 05:54 13,7 C 12,8 C 12,2 C 96 % 1018,8 hPa 0,0 l/m 0 min 0 min 0 W/m 2,3 km/h (1 Bft) 100,00 %
13.09.2018 05:56 13,7 C 12,8 C 12,2 C 96 % 1018,8 hPa 0,0 l/m 0 min 0 min 0 W/m 2,3 km/h (1 Bft) 100,00 %
13.09.2018 05:58 13,7 C 12,8 C 12,2 C 96 % 1018,8 hPa 0,0 l/m 0 min 0 min 0 W/m 2,3 km/h (1 Bft) 97,87 %
13.09.2018 06:00 13,6 C 12,8 C 12,2 C 96 % 1018,8 hPa 0,0 l/m 0 min 0 min 0 W/m 2,3 km/h (1 Bft) 100,00 %
13.09.2018 06:02 13,6 C 12,8 C 12,2 C 96 % 1018,8 hPa 0,0 l/m 0 min 0 min 0 W/m 9,0 km/h (2 Bft) 100,00 %
13.09.2018 06:04 13,6 C 12,2 C 12,2 C 96 % 1018,8 hPa 0,0 l/m 0 min 0 min 0 W/m 9,0 km/h (2 Bft) 100,00 %
13.09.2018 06:08 13,6 C 12,2 C 12,2 C 96 % 1018,8 hPa 0,0 l/m 0 min 0 min 0 W/m 4,5 km/h (1 Bft) 100,00 %
13.09.2018 06:10 13,6 C 12,2 C 12,2 C 96 % 1018,7 hPa 0,0 l/m 0 min 0 min 0 W/m 0,0 km/h (0 Bft) 100,00 %
13.09.2018 06:12 13,6 C 12,2 C 12,2 C 96 % 1018,8 hPa 0,0 l/m 0 min 0 min 0 W/m 4,5 km/h (1 Bft) 100,00 %
13.09.2018 06:14 13,6 C 12,2 C 12,2 C 96 % 1018,8 hPa 0,0 l/m 0 min 0 min 0 W/m 2,3 km/h (1 Bft) 97,83 %
13.09.2018 06:16 13,6 C 12,2 C 12,2 C 96 % 1018,9 hPa 0,0 l/m 0 min 0 min 0 W/m 2,3 km/h (1 Bft) 97,87 %
13.09.2018 06:18 13,6 C 12,2 C 12,2 C 96 % 1018,9 hPa 0,0 l/m 0 min 0 min 0 W/m 0,0 km/h (0 Bft) 100,00 %
13.09.2018 06:20 13,5 C 12,2 C 12,2 C 96 % 1018,9 hPa 0,0 l/m 0 min 0 min 0 W/m 0,0 km/h (0 Bft) 100,00 %
13.09.2018 06:22 13,5 C 12,2 C 12,2 C 96 % 1018,9 hPa 0,0 l/m 0 min 0 min 0 W/m 0,0 km/h (0 Bft) 100,00 %
13.09.2018 06:24 13,5 C 12,2 C 12,2 C 96 % 1018,9 hPa 0,0 l/m 0 min 0 min 0 W/m 0,0 km/h (0 Bft) 98,00 %
13.09.2018 06:26 13,5 C 12,2 C 12,2 C 96 % 1018,9 hPa 0,0 l/m 0 min 0 min 0 W/m 0,0 km/h (0 Bft) 97,83 %
13.09.2018 06:28 13,4 C 12,2 C 12,2 C 96 % 1018,8 hPa 0,0 l/m 0 min 0 min 0 W/m 0,0 km/h (0 Bft) 100,00 %
13.09.2018 06:30 13,4 C 12,2 C 12,2 C 96 % 1019,0 hPa 0,0 l/m 0 min 0 min 0 W/m 4,5 km/h (1 Bft) 100,00 %
13.09.2018 06:32 13,4 C 12,2 C 12,2 C 96 % 1019,0 hPa 0,0 l/m 0 min 0 min 0 W/m 0,0 km/h (0 Bft) 97,87 %
13.09.2018 06:34 13,4 C 12,2 C 12,2 C 96 % 1018,9 hPa 0,0 l/m 0 min 0 min 0 W/m 4,5 km/h (1 Bft) 97,87 %
13.09.2018 06:36 13,4 C 12,2 C 12,2 C 96 % 1018,9 hPa 0,0 l/m 0 min 0 min 0 W/m 9,0 km/h (2 Bft) 100,00 %
13.09.2018 06:38 13,4 C 12,2 C 12,2 C 96 % 1018,9 hPa 0,0 l/m 0 min 0 min 0 W/m 4,5 km/h (1 Bft) 100,00 %
13.09.2018 06:40 13,4 C 12,2 C 12,2 C 96 % 1018,8 hPa 0,0 l/m 0 min 0 min 0 W/m 4,5 km/h (1 Bft) 100,00 %
13.09.2018 06:42 13,4 C 12,2 C 12,2 C 96 % 1018,8 hPa 0,0 l/m 0 min 0 min 0 W/m 4,5 km/h (1 Bft) 100,00 %
13.09.2018 06:44 13,4 C 12,2 C 12,2 C 96 % 1018,8 hPa 0,0 l/m 0 min 0 min 0 W/m 4,5 km/h (1 Bft) 100,00 %
13.09.2018 06:46 13,4 C 12,2 C 12,2 C 96 % 1018,8 hPa 0,0 l/m 0 min 0 min 0 W/m 2,3 km/h (1 Bft) 97,87 %
13.09.2018 06:48 13,4 C 12,2 C 12,2 C 96 % 1018,8 hPa 0,0 l/m 0 min 0 min 0 W/m 2,3 km/h (1 Bft) 100,00 %
13.09.2018 06:50 13,4 C 12,2 C 12,2 C 96 % 1018,9 hPa 0,0 l/m 0 min 0 min 0 W/m 9,0 km/h (2 Bft) 100,00 %
13.09.2018 06:52 13,4 C 12,2 C 12,2 C 96 % 1018,9 hPa 0,0 l/m 0 min 0 min 0 W/m 2,3 km/h (1 Bft) 93,62 %
13.09.2018 06:54 13,4 C 12,2 C 12,2 C 97 % 1018,8 hPa 0,0 l/m 0 min 0 min 0 W/m 6,8 km/h (2 Bft) 95,74 %
13.09.2018 06:56 13,4 C 12,2 C 12,2 C 97 % 1018,8 hPa 0,0 l/m 0 min 0 min 0 W/m 6,8 km/h (2 Bft) 93,62 %
13.09.2018 06:58 13,4 C 12,2 C 12,2 C 97 % 1018,7 hPa 0,0 l/m 0 min 0 min 0 W/m 2,3 km/h (1 Bft) 95,74 %
13.09.2018 07:00 13,3 C 12,2 C 12,2 C 97 % 1018,9 hPa 0,0 l/m 0 min 0 min 0 W/m 4,5 km/h (1 Bft) 95,74 %
13.09.2018 07:02 13,3 C 12,2 C 12,2 C 97 % 1018,8 hPa 0,0 l/m 0 min 0 min 0 W/m 4,5 km/h (1 Bft) 93,48 %
13.09.2018 07:04 13,3 C 12,2 C 12,2 C 97 % 1018,8 hPa 0,0 l/m 0 min 0 min 0 W/m 4,5 km/h (1 Bft) 97,87 %
13.09.2018 07:06 13,3 C 12,2 C 12,2 C 97 % 1018,8 hPa 0,0 l/m 0 min 0 min 0 W/m 2,3 km/h (1 Bft) 93,62 %
13.09.2018 07:08 13,3 C 12,2 C 12,2 C 97 % 1018,8 hPa 0,0 l/m 0 min 0 min 0 W/m 4,5 km/h (1 Bft) 95,74 %
13.09.2018 07:10 13,3 C 12,2 C 12,2 C 97 % 1018,9 hPa 0,0 l/m 0 min 0 min 0 W/m 2,3 km/h (1 Bft) 95,74 %
13.09.2018 07:12 13,3 C 12,2 C 12,2 C 97 % 1018,8 hPa 0,0 l/m 0 min 0 min 0 W/m 4,5 km/h (1 Bft) 97,87 %
13.09.2018 07:14 13,3 C 12,2 C 12,2 C 97 % 1018,8 hPa 0,0 l/m 0 min 0 min 0 W/m 11,3 km/h (2 Bft) 95,65 %
13.09.2018 07:16 13,3 C 12,2 C 12,2 C 97 % 1018,8 hPa 0,0 l/m 0 min 0 min 0 W/m 2,3 km/h (1 Bft) 93,62 %
13.09.2018 07:18 13,2 C 12,2 C 12,2 C 97 % 1018,8 hPa 0,0 l/m 0 min 0 min 0 W/m 4,5 km/h (1 Bft) 95,74 %
13.09.2018 07:20 13,2 C 12,2 C 12,2 C 97 % 1018,8 hPa 0,0 l/m 0 min 0 min 0 W/m 4,5 km/h (1 Bft) 93,62 %
13.09.2018 07:22 13,2 C 12,2 C 12,2 C 97 % 1018,9 hPa 0,0 l/m 0 min 0 min 0 W/m 4,5 km/h (1 Bft) 93,62 %
13.09.2018 07:24 13,2 C 12,2 C 12,2 C 97 % 1018,8 hPa 0,0 l/m 0 min 0 min 0 W/m 2,3 km/h (1 Bft) 93,62 %
13.09.2018 07:26 13,2 C 12,2 C 12,2 C 97 % 1018,9 hPa 0,0 l/m 0 min 0 min 0 W/m 6,8 km/h (2 Bft) 91,30 %
13.09.2018 07:28 13,2 C 12,2 C 12,2 C 97 % 1019,0 hPa 0,0 l/m 0 min 0 min 0 W/m 6,8 km/h (2 Bft) 93,62 %
13.09.2018 07:30 13,2 C 12,2 C 12,2 C 97 % 1019,0 hPa 0,0 l/m 0 min 0 min 0 W/m 4,5 km/h (1 Bft) 91,49 %
13.09.2018 07:32 13,2 C 12,2 C 12,2 C 97 % 1019,0 hPa 0,0 l/m 0 min 0 min 0 W/m 2,3 km/h (1 Bft) 93,62 %
13.09.2018 07:34 13,2 C 12,2 C 12,2 C 97 % 1019,0 hPa 0,0 l/m 0 min 0 min 0 W/m 4,5 km/h (1 Bft) 93,62 %
13.09.2018 07:36 13,1 C 12,2 C 12,2 C 97 % 1019,0 hPa 0,0 l/m 0 min 0 min 2 W/m 4,5 km/h (1 Bft) 93,48 %
13.09.2018 07:38 13,1 C 12,2 C 12,2 C 97 % 1019,0 hPa 0,0 l/m 0 min 0 min 5 W/m 2,3 km/h (1 Bft) 89,36 %
13.09.2018 07:40 13,1 C 12,2 C 12,2 C 97 % 1018,9 hPa 0,0 l/m 0 min 0 min 5 W/m 2,3 km/h (1 Bft) 93,62 %
13.09.2018 07:42 13,1 C 12,2 C 12,2 C 97 % 1018,9 hPa 0,0 l/m 0 min 0 min 5 W/m 2,3 km/h (1 Bft) 93,62 %
13.09.2018 07:44 13,1 C 12,2 C 12,2 C 97 % 1018,8 hPa 0,0 l/m 0 min 0 min 7 W/m 2,3 km/h (1 Bft) 95,74 %
13.09.2018 07:46 13,1 C 12,2 C 12,2 C 97 % 1018,8 hPa 0,0 l/m 0 min 0 min 8 W/m 4,5 km/h (1 Bft) 95,74 %
13.09.2018 07:48 13,1 C 12,2 C 12,2 C 97 % 1018,8 hPa 0,0 l/m 0 min 0 min 9 W/m 6,8 km/h (2 Bft) 95,65 %
13.09.2018 07:50 13,1 C 12,2 C 12,2 C 97 % 1018,9 hPa 0,0 l/m 0 min 0 min 9 W/m 4,5 km/h (1 Bft) 93,62 %
13.09.2018 07:52 13,1 C 12,2 C 12,2 C 97 % 1018,8 hPa 0,0 l/m 0 min 0 min 11 W/m 4,5 km/h (1 Bft) 95,74 %
13.09.2018 07:54 13,1 C 12,2 C 12,2 C 97 % 1018,9 hPa 0,0 l/m 0 min 0 min 12 W/m 6,8 km/h (2 Bft) 95,74 %
13.09.2018 07:56 13,1 C 12,2 C 12,2 C 97 % 1018,9 hPa 0,0 l/m 0 min 0 min 12 W/m 6,8 km/h (2 Bft) 97,87 %
13.09.2018 07:58 13,1 C 12,2 C 12,2 C 97 % 1018,9 hPa 0,0 l/m 0 min 0 min 16 W/m 0,0 km/h (0 Bft) 95,74 %
13.09.2018 08:00 13,1 C 12,2 C 12,2 C 97 % 1018,9 hPa 0,0 l/m 0 min 0 min 18 W/m 0,0 km/h (0 Bft) 97,83 %
13.09.2018 08:02 13,1 C 12,2 C 12,2 C 97 % 1018,9 hPa 0,0 l/m 0 min 0 min 19 W/m 4,5 km/h (1 Bft) 97,87 %
13.09.2018 08:04 13,1 C 12,2 C 12,2 C 97 % 1018,9 hPa 0,0 l/m 0 min 0 min 21 W/m 4,5 km/h (1 Bft) 95,74 %
13.09.2018 08:06 13,1 C 12,2 C 12,2 C 97 % 1018,9 hPa 0,0 l/m 0 min 0 min 20 W/m 0,0 km/h (0 Bft) 97,87 %
13.09.2018 08:08 13,1 C 12,2 C 12,2 C 97 % 1018,9 hPa 0,0 l/m 0 min 0 min 20 W/m 0,0 km/h (0 Bft) 97,87 %
13.09.2018 08:10 13,1 C 12,2 C 12,2 C 97 % 1018,9 hPa 0,0 l/m 0 min 0 min 21 W/m 0,0 km/h (0 Bft) 97,87 %
13.09.2018 08:12 13,1 C 12,2 C 12,2 C 97 % 1018,9 hPa 0,0 l/m 0 min 0 min 23 W/m 0,0 km/h (0 Bft) 97,83 %
13.09.2018 08:14 13,1 C 12,2 C 12,2 C 97 % 1018,9 hPa 0,0 l/m 0 min 0 min 23 W/m 0,0 km/h (0 Bft) 97,87 %
13.09.2018 08:16 13,1 C 12,2 C 12,2 C 97 % 1018,8 hPa 0,0 l/m 0 min 0 min 27 W/m 0,0 km/h (0 Bft) 95,74 %
13.09.2018 08:18 13,1 C 12,2 C 12,2 C 97 % 1018,8 hPa 0,0 l/m 0 min 0 min 31 W/m 0,0 km/h (0 Bft) 97,87 %
13.09.2018 08:20 13,1 C 12,2 C 12,2 C 97 % 1018,7 hPa 0,0 l/m 0 min 0 min 34 W/m 0,0 km/h (0 Bft) 97,87 %
13.09.2018 08:22 13,1 C 12,2 C 12,2 C 97 % 1018,8 hPa 0,0 l/m 0 min 0 min 36 W/m 4,5 km/h (1 Bft) 97,87 %
13.09.2018 08:24 13,1 C 12,2 C 12,2 C 97 % 1018,8 hPa 0,0 l/m 0 min 0 min 36 W/m 0,0 km/h (0 Bft) 100,00 %
13.09.2018 08:26 13,2 C 12,2 C 12,2 C 97 % 1018,8 hPa 0,0 l/m 0 min 0 min 36 W/m 2,3 km/h (1 Bft) 97,87 %
13.09.2018 08:28 13,2 C 12,2 C 12,2 C 97 % 1018,9 hPa 0,0 l/m 0 min 0 min 37 W/m 4,5 km/h (1 Bft) 100,00 %
13.09.2018 08:30 13,2 C 12,2 C 12,2 C 97 % 1018,8 hPa 0,0 l/m 0 min 0 min 34 W/m 9,0 km/h (2 Bft) 100,00 %
13.09.2018 08:32 13,2 C 12,2 C 12,2 C 97 % 1018,9 hPa 0,0 l/m 0 min 0 min 33 W/m 9,0 km/h (2 Bft) 100,00 %
13.09.2018 08:34 13,2 C 12,2 C 12,2 C 97 % 1018,9 hPa 0,0 l/m 0 min 0 min 33 W/m 4,5 km/h (1 Bft) 95,74 %
13.09.2018 08:36 13,2 C 12,2 C 12,2 C 97 % 1018,9 hPa 0,0 l/m 0 min 0 min 35 W/m 6,8 km/h (2 Bft) 100,00 %
13.09.2018 08:38 13,2 C 12,2 C 12,2 C 97 % 1019,0 hPa 0,0 l/m 0 min 0 min 36 W/m 0,0 km/h (0 Bft) 100,00 %
13.09.2018 08:40 13,2 C 12,2 C 12,2 C 97 % 1019,0 hPa 0,0 l/m 0 min 0 min 37 W/m 0,0 km/h (0 Bft) 100,00 %
13.09.2018 08:42 13,2 C 12,2 C 12,2 C 97 % 1019,0 hPa 0,0 l/m 0 min 0 min 36 W/m 4,5 km/h (1 Bft) 100,00 %
13.09.2018 08:44 13,2 C 12,8 C 12,2 C 97 % 1018,9 hPa 0,0 l/m 0 min 0 min 42 W/m 2,3 km/h (1 Bft) 95,74 %
13.09.2018 08:46 13,2 C 12,8 C 12,2 C 97 % 1018,9 hPa 0,0 l/m 0 min 0 min 52 W/m 2,3 km/h (1 Bft) 100,00 %
13.09.2018 08:48 13,2 C 12,8 C 12,2 C 97 % 1019,0 hPa 0,0 l/m 0 min 0 min 65 W/m 4,5 km/h (1 Bft) 100,00 %
13.09.2018 08:50 13,2 C 12,8 C 12,2 C 97 % 1019,0 hPa 0,0 l/m 0 min 0 min 66 W/m 6,8 km/h (2 Bft) 100,00 %
13.09.2018 08:52 13,2 C 12,8 C 12,2 C 97 % 1019,0 hPa 0,0 l/m 0 min 0 min 59 W/m 6,8 km/h (2 Bft) 100,00 %
13.09.2018 08:54 13,2 C 12,8 C 12,2 C 97 % 1019,0 hPa 0,0 l/m 0 min 0 min 55 W/m 2,3 km/h (1 Bft) 100,00 %
13.09.2018 08:56 13,2 C 12,8 C 12,2 C 97 % 1019,0 hPa 0,0 l/m 0 min 0 min 52 W/m 0,0 km/h (0 Bft) 97,87 %
13.09.2018 08:58 13,2 C 12,8 C 12,2 C 97 % 1019,0 hPa 0,0 l/m 0 min 0 min 52 W/m 2,3 km/h (1 Bft) 100,00 %
13.09.2018 09:00 13,2 C 12,8 C 12,2 C 97 % 1019,0 hPa 0,0 l/m 0 min 0 min 58 W/m 2,3 km/h (1 Bft) 100,00 %
13.09.2018 09:02 13,3 C 12,8 C 12,2 C 97 % 1019,0 hPa 0,0 l/m 0 min 0 min 56 W/m 2,3 km/h (1 Bft) 100,00 %
13.09.2018 09:04 13,3 C 12,8 C 12,2 C 97 % 1019,0 hPa 0,0 l/m 0 min 0 min 54 W/m 4,5 km/h (1 Bft) 100,00 %
13.09.2018 09:06 13,3 C 12,8 C 12,8 C 97 % 1019,1 hPa 0,0 l/m 0 min 0 min 54 W/m 0,0 km/h (0 Bft) 100,00 %
13.09.2018 09:08 13,3 C 12,8 C 12,2 C 97 % 1019,1 hPa 0,0 l/m 0 min 0 min 61 W/m 6,8 km/h (2 Bft) 100,00 %
13.09.2018 09:10 13,3 C 12,8 C 12,2 C 97 % 1019,2 hPa 0,0 l/m 0 min 0 min 64 W/m 2,3 km/h (1 Bft) 100,00 %
13.09.2018 09:12 13,3 C 12,8 C 12,8 C 97 % 1019,2 hPa 0,0 l/m 0 min 0 min 65 W/m 4,5 km/h (1 Bft) 100,00 %
13.09.2018 09:14 13,3 C 12,8 C 12,8 C 97 % 1019,2 hPa 0,0 l/m 0 min 0 min 69 W/m 4,5 km/h (1 Bft) 100,00 %
13.09.2018 09:16 13,3 C 12,8 C 12,2 C 97 % 1019,2 hPa 0,0 l/m 0 min 0 min 72 W/m 2,3 km/h (1 Bft) 100,00 %
13.09.2018 09:18 13,3 C 12,8 C 12,8 C 98 % 1019,2 hPa 0,0 l/m 0 min 0 min 75 W/m 2,3 km/h (1 Bft) 100,00 %
13.09.2018 09:20 13,3 C 12,8 C 12,8 C 98 % 1019,1 hPa 0,0 l/m 0 min 0 min 83 W/m 0,0 km/h (0 Bft) 100,00 %
13.09.2018 09:22 13,4 C 12,8 C 12,8 C 98 % 1019,1 hPa 0,0 l/m 0 min 0 min 90 W/m 0,0 km/h (0 Bft) 100,00 %
13.09.2018 09:24 13,4 C 12,8 C 12,8 C 98 % 1019,1 hPa 0,0 l/m 0 min 0 min 95 W/m 2,3 km/h (1 Bft) 100,00 %
13.09.2018 09:26 13,4 C 12,8 C 12,8 C 98 % 1019,2 hPa 0,0 l/m 0 min 0 min 84 W/m 2,3 km/h (1 Bft) 100,00 %
13.09.2018 09:28 13,4 C 12,8 C 12,8 C 98 % 1019,2 hPa 0,0 l/m 0 min 0 min 84 W/m 4,5 km/h (1 Bft) 100,00 %
13.09.2018 09:30 13,4 C 12,8 C 12,8 C 98 % 1019,2 hPa 0,0 l/m 0 min 0 min 79 W/m 2,3 km/h (1 Bft) 100,00 %
13.09.2018 09:32 13,4 C 12,8 C 12,8 C 98 % 1019,2 hPa 0,0 l/m 0 min 0 min 70 W/m 4,5 km/h (1 Bft) 95,74 %
13.09.2018 09:34 13,5 C 12,8 C 12,8 C 98 % 1019,2 hPa 0,0 l/m 0 min 0 min 64 W/m 2,3 km/h (1 Bft) 97,83 %
13.09.2018 09:36 13,5 C 12,8 C 12,8 C 98 % 1019,2 hPa 0,0 l/m 0 min 0 min 61 W/m 4,5 km/h (1 Bft) 97,87 %
13.09.2018 09:38 13,5 C 12,8 C 12,8 C 98 % 1019,2 hPa 0,0 l/m 0 min 0 min 63 W/m 2,3 km/h (1 Bft) 100,00 %
13.09.2018 09:40 13,5 C 12,8 C 12,8 C 98 % 1019,2 hPa 0,0 l/m 0 min 0 min 71 W/m 6,8 km/h (2 Bft) 97,87 %
13.09.2018 09:42 13,5 C 12,8 C 12,8 C 98 % 1019,2 hPa 0,0 l/m 0 min 0 min 74 W/m 4,5 km/h (1 Bft) 96,00 %
13.09.2018 09:44 13,5 C 12,8 C 12,8 C 98 % 1019,2 hPa 0,0 l/m 0 min 0 min 78 W/m 4,5 km/h (1 Bft) 95,65 %
13.09.2018 09:46 13,6 C 13,3 C 12,8 C 98 % 1019,2 hPa 0,0 l/m 0 min 0 min 81 W/m 2,3 km/h (1 Bft) 95,74 %
13.09.2018 09:48 13,6 C 13,3 C 12,8 C 98 % 1019,3 hPa 0,0 l/m 0 min 0 min 84 W/m 4,5 km/h (1 Bft) 97,87 %
13.09.2018 09:50 13,6 C 13,3 C 13,3 C 98 % 1019,2 hPa 0,0 l/m 0 min 0 min 87 W/m 0,0 km/h (0 Bft) 95,74 %
13.09.2018 09:52 13,6 C 13,3 C 13,3 C 98 % 1019,3 hPa 0,0 l/m 0 min 0 min 90 W/m 4,5 km/h (1 Bft) 95,74 %
13.09.2018 09:54 13,6 C 13,3 C 13,3 C 98 % 1019,3 hPa 0,0 l/m 0 min 0 min 89 W/m 2,3 km/h (1 Bft) 93,62 %
13.09.2018 09:56 13,6 C 13,3 C 13,3 C 98 % 1019,2 hPa 0,0 l/m 0 min 0 min 91 W/m 4,5 km/h (1 Bft) 93,48 %
13.09.2018 09:58 13,7 C 13,3 C 13,3 C 98 % 1019,2 hPa 0,0 l/m 0 min 0 min 90 W/m 0,0 km/h (0 Bft) 95,74 %
13.09.2018 10:00 13,7 C 13,3 C 13,3 C 98 % 1019,2 hPa 0,0 l/m 0 min 0 min 90 W/m 0,0 km/h (0 Bft) 95,74 %
13.09.2018 10:02 13,7 C 13,3 C 13,3 C 98 % 1019,3 hPa 0,0 l/m 0 min 0 min 91 W/m 0,0 km/h (0 Bft) 95,74 %
13.09.2018 10:04 13,7 C 13,3 C 13,3 C 98 % 1019,3 hPa 0,0 l/m 0 min 0 min 94 W/m 0,0 km/h (0 Bft) 95,74 %
13.09.2018 10:06 13,7 C 13,3 C 13,3 C 98 % 1019,2 hPa 0,0 l/m 0 min 0 min 98 W/m 0,0 km/h (0 Bft) 95,74 %
13.09.2018 10:08 13,7 C 13,3 C 13,3 C 98 % 1019,3 hPa 0,0 l/m 0 min 0 min 103 W/m 0,0 km/h (0 Bft) 95,65 %
13.09.2018 10:10 13,7 C 13,3 C 13,3 C 98 % 1019,3 hPa 0,0 l/m 0 min 0 min 106 W/m 0,0 km/h (0 Bft) 93,62 %
13.09.2018 10:12 13,8 C 13,3 C 13,3 C 98 % 1019,3 hPa 0,0 l/m 0 min 0 min 110 W/m 2,3 km/h (1 Bft) 93,62 %
13.09.2018 10:14 13,8 C 13,3 C 13,3 C 98 % 1019,3 hPa 0,0 l/m 0 min 0 min 119 W/m 4,5 km/h (1 Bft) 97,87 %
13.09.2018 10:16 13,8 C 13,3 C 13,3 C 98 % 1019,3 hPa 0,0 l/m 0 min 0 min 119 W/m 9,0 km/h (2 Bft) 95,74 %
13.09.2018 10:18 13,8 C 13,3 C 13,3 C 98 % 1019,4 hPa 0,0 l/m 0 min 0 min 116 W/m 0,0 km/h (0 Bft) 95,74 %
13.09.2018 10:20 13,8 C 13,9 C 13,3 C 98 % 1019,3 hPa 0,0 l/m 0 min 0 min 125 W/m 0,0 km/h (0 Bft) 95,65 %
13.09.2018 10:22 13,8 C 13,9 C 13,3 C 98 % 1019,3 hPa 0,0 l/m 0 min 0 min 126 W/m 0,0 km/h (0 Bft) 95,74 %
13.09.2018 10:24 13,8 C 13,3 C 13,3 C 98 % 1019,4 hPa 0,0 l/m 0 min 0 min 146 W/m 9,0 km/h (2 Bft) 95,74 %
13.09.2018 10:26 13,9 C 13,3 C 13,3 C 98 % 1019,3 hPa 0,0 l/m 0 min 0 min 159 W/m 11,3 km/h (2 Bft) 95,74 %
13.09.2018 10:28 13,9 C 13,9 C 13,3 C 98 % 1019,4 hPa 0,0 l/m 0 min 0 min 163 W/m 6,8 km/h (2 Bft) 95,74 %
13.09.2018 10:30 13,9 C 13,9 C 13,9 C 98 % 1019,4 hPa 0,0 l/m 0 min 0 min 143 W/m 2,3 km/h (1 Bft) 95,74 %
13.09.2018 10:32 13,9 C 13,9 C 13,9 C 98 % 1019,4 hPa 0,0 l/m 0 min 0 min 136 W/m 9,0 km/h (2 Bft) 95,65 %
13.09.2018 10:34 13,9 C 13,3 C 13,9 C 98 % 1019,4 hPa 0,0 l/m 0 min 0 min 126 W/m 9,0 km/h (2 Bft) 97,87 %
13.09.2018 10:36 13,9 C 13,9 C 13,9 C 98 % 1019,4 hPa 0,0 l/m 0 min 0 min 124 W/m 6,8 km/h (2 Bft) 97,87 %
13.09.2018 10:38 14,0 C 13,9 C 13,3 C 98 % 1019,4 hPa 0,0 l/m 0 min 0 min 131 W/m 4,5 km/h (1 Bft) 100,00 %
13.09.2018 10:40 14,0 C 13,3 C 13,9 C 98 % 1019,4 hPa 0,0 l/m 0 min 0 min 146 W/m 11,3 km/h (2 Bft) 97,87 %
13.09.2018 10:42 14,0 C 13,3 C 13,3 C 98 % 1019,5 hPa 0,0 l/m 0 min 0 min 146 W/m 4,5 km/h (1 Bft) 100,00 %
13.09.2018 10:44 14,0 C 13,9 C 13,9 C 98 % 1019,5 hPa 0,0 l/m 0 min 0 min 131 W/m 11,3 km/h (2 Bft) 100,00 %
13.09.2018 10:46 14,0 C 13,3 C 13,9 C 98 % 1019,5 hPa 0,0 l/m 0 min 0 min 125 W/m 11,3 km/h (2 Bft) 97,87 %
13.09.2018 10:48 14,1 C 13,3 C 13,9 C 97 % 1019,6 hPa 0,0 l/m 0 min 0 min 128 W/m 9,0 km/h (2 Bft) 100,00 %
13.09.2018 10:50 14,1 C 13,9 C 13,3 C 97 % 1019,6 hPa 0,0 l/m 0 min 0 min 124 W/m 4,5 km/h (1 Bft) 100,00 %
13.09.2018 10:52 14,1 C 13,9 C 13,3 C 97 % 1019,6 hPa 0,0 l/m 0 min 0 min 143 W/m 4,5 km/h (1 Bft) 100,00 %
13.09.2018 10:54 14,1 C 13,9 C 13,9 C 98 % 1019,6 hPa 0,0 l/m 0 min 0 min 165 W/m 9,0 km/h (2 Bft) 97,87 %
13.09.2018 10:56 14,1 C 13,9 C 13,9 C 98 % 1019,6 hPa 0,0 l/m 0 min 0 min 174 W/m 6,8 km/h (2 Bft) 97,83 %
13.09.2018 10:58 14,1 C 13,9 C 13,9 C 98 % 1019,5 hPa 0,0 l/m 0 min 0 min 178 W/m 2,3 km/h (1 Bft) 97,87 %
13.09.2018 11:00 14,2 C 13,9 C 13,9 C 98 % 1019,6 hPa 0,0 l/m 0 min 0 min 182 W/m 9,0 km/h (2 Bft) 97,87 %
13.09.2018 11:02 14,2 C 13,9 C 13,9 C 97 % 1019,6 hPa 0,0 l/m 0 min 0 min 203 W/m 9,0 km/h (2 Bft) 97,56 %
13.09.2018 11:04 14,2 C 14,4 C 13,9 C 97 % 1019,6 hPa 0,0 l/m 0 min 0 min 183 W/m 2,3 km/h (1 Bft) 98,11 %
13.09.2018 11:06 14,2 C 14,4 C 13,9 C 97 % 1019,6 hPa 0,0 l/m 0 min 0 min 177 W/m 0,0 km/h (0 Bft) 97,87 %
13.09.2018 11:08 14,2 C 14,4 C 13,9 C 97 % 1019,6 hPa 0,0 l/m 0 min 0 min 166 W/m 6,8 km/h (2 Bft) 97,83 %
13.09.2018 11:10 14,2 C 14,4 C 13,9 C 97 % 1019,6 hPa 0,0 l/m 0 min 0 min 178 W/m 6,8 km/h (2 Bft) 97,87 %
13.09.2018 11:12 14,3 C 14,4 C 13,9 C 97 % 1019,6 hPa 0,0 l/m 0 min 0 min 194 W/m 6,8 km/h (2 Bft) 97,87 %
13.09.2018 11:14 14,3 C 14,4 C 13,9 C 97 % 1019,6 hPa 0,0 l/m 0 min 0 min 177 W/m 6,8 km/h (2 Bft) 95,74 %
13.09.2018 11:16 14,4 C 14,4 C 13,9 C 97 % 1019,6 hPa 0,0 l/m 0 min 0 min 154 W/m 4,5 km/h (1 Bft) 100,00 %
13.09.2018 11:18 14,4 C 14,4 C 13,9 C 97 % 1019,7 hPa 0,0 l/m 0 min 0 min 170 W/m 6,8 km/h (2 Bft) 95,74 %
13.09.2018 11:20 14,4 C 14,4 C 14,4 C 97 % 1019,6 hPa 0,0 l/m 0 min 0 min 222 W/m 2,3 km/h (1 Bft) 94,23 %
13.09.2018 11:22 14,5 C 15,0 C 14,4 C 97 % 1019,6 hPa 0,0 l/m 0 min 0 min 198 W/m 2,3 km/h (1 Bft) 97,87 %
13.09.2018 11:24 14,6 C 14,4 C 14,4 C 97 % 1019,6 hPa 0,0 l/m 0 min 0 min 187 W/m 4,5 km/h (1 Bft) 97,87 %
13.09.2018 11:26 14,6 C 15,0 C 14,4 C 97 % 1019,6 hPa 0,0 l/m 0 min 0 min 200 W/m 4,5 km/h (1 Bft) 97,87 %
13.09.2018 11:28 14,7 C 14,4 C 14,4 C 97 % 1019,5 hPa 0,0 l/m 0 min 0 min 217 W/m 11,3 km/h (2 Bft) 97,87 %
13.09.2018 11:30 14,7 C 15,0 C 14,4 C 97 % 1019,5 hPa 0,0 l/m 0 min 0 min 235 W/m 6,8 km/h (2 Bft) 97,87 %
13.09.2018 11:32 14,7 C 15,0 C 14,4 C 97 % 1019,5 hPa 0,0 l/m 0 min 0 min 253 W/m 6,8 km/h (2 Bft) 97,50 %
13.09.2018 11:34 14,8 C 15,0 C 15,0 C 97 % 1019,5 hPa 0,0 l/m 0 min 0 min 252 W/m 4,5 km/h (1 Bft) 97,87 %
13.09.2018 11:36 14,8 C 15,0 C 15,0 C 97 % 1019,5 hPa 0,0 l/m 0 min 0 min 277 W/m 6,8 km/h (2 Bft) 98,15 %
13.09.2018 11:38 14,9 C 15,6 C 15,0 C 97 % 1019,5 hPa 0,0 l/m 0 min 0 min 249 W/m 4,5 km/h (1 Bft) 97,87 %
13.09.2018 11:40 14,9 C 15,0 C 14,4 C 97 % 1019,6 hPa 0,0 l/m 0 min 0 min 219 W/m 13,5 km/h (3 Bft) 97,87 %
13.09.2018 11:42 14,9 C 14,4 C 14,4 C 97 % 1019,5 hPa 0,0 l/m 0 min 0 min 178 W/m 6,8 km/h (2 Bft) 97,87 %
13.09.2018 11:44 14,9 C 14,4 C 14,4 C 96 % 1019,6 hPa 0,0 l/m 0 min 0 min 146 W/m 4,5 km/h (1 Bft) 97,83 %
13.09.2018 11:46 15,0 C 15,0 C 14,4 C 96 % 1019,6 hPa 0,0 l/m 0 min 0 min 133 W/m 2,3 km/h (1 Bft) 98,00 %
13.09.2018 11:48 15,0 C 15,0 C 14,4 C 96 % 1019,7 hPa 0,0 l/m 0 min 0 min 118 W/m 2,3 km/h (1 Bft) 97,87 %
13.09.2018 11:50 15,1 C 15,0 C 14,4 C 96 % 1019,6 hPa 0,0 l/m 0 min 0 min 118 W/m 0,0 km/h (0 Bft) 97,87 %
13.09.2018 11:52 15,1 C 15,0 C 14,4 C 96 % 1019,7 hPa 0,0 l/m 0 min 0 min 127 W/m 4,5 km/h (1 Bft) 100,00 %
13.09.2018 11:54 15,1 C 15,0 C 14,4 C 96 % 1019,6 hPa 0,0 l/m 0 min 0 min 130 W/m 6,8 km/h (2 Bft) 100,00 %
13.09.2018 11:56 15,1 C 15,6 C 14,4 C 95 % 1019,7 hPa 0,0 l/m 0 min 0 min 153 W/m 4,5 km/h (1 Bft) 100,00 %
13.09.2018 11:58 15,2 C 15,6 C 14,4 C 95 % 1019,6 hPa 0,0 l/m 0 min 0 min 186 W/m 2,3 km/h (1 Bft) 95,74 %
13.09.2018 12:00 15,2 C 15,6 C 14,4 C 95 % 1019,7 hPa 0,0 l/m 0 min 0 min 196 W/m 6,8 km/h (2 Bft) 100,00 %
13.09.2018 12:02 15,2 C 16,1 C 14,4 C 95 % 1019,7 hPa 0,0 l/m 0 min 0 min 225 W/m 11,3 km/h (2 Bft) 97,87 %
13.09.2018 12:04 15,2 C 16,1 C 14,4 C 95 % 1019,7 hPa 0,0 l/m 0 min 0 min 210 W/m 9,0 km/h (2 Bft) 100,00 %
13.09.2018 12:06 15,2 C 16,1 C 14,4 C 94 % 1019,6 hPa 0,0 l/m 0 min 0 min 200 W/m 11,3 km/h (2 Bft) 100,00 %
13.09.2018 12:08 15,3 C 16,1 C 14,4 C 94 % 1019,6 hPa 0,0 l/m 0 min 0 min 222 W/m 11,3 km/h (2 Bft) 97,87 %
13.09.2018 12:10 15,3 C 16,1 C 14,4 C 94 % 1019,5 hPa 0,0 l/m 0 min 0 min 227 W/m 11,3 km/h (2 Bft) 100,00 %
13.09.2018 12:12 15,3 C 16,1 C 14,4 C 93 % 1019,5 hPa 0,0 l/m 0 min 0 min 209 W/m 13,5 km/h (3 Bft) 100,00 %
13.09.2018 12:14 15,3 C 16,1 C 14,4 C 93 % 1019,5 hPa 0,0 l/m 0 min 0 min 198 W/m 6,8 km/h (2 Bft) 100,00 %
13.09.2018 12:16 15,4 C 16,1 C 14,4 C 93 % 1019,5 hPa 0,0 l/m 0 min 0 min 198 W/m 6,8 km/h (2 Bft) 97,83 %
13.09.2018 12:18 15,4 C 16,1 C 14,4 C 93 % 1019,4 hPa 0,0 l/m 0 min 0 min 195 W/m 9,0 km/h (2 Bft) 100,00 %
13.09.2018 12:20 15,4 C 16,1 C 14,4 C 92 % 1019,4 hPa 0,0 l/m 0 min 0 min 201 W/m 4,5 km/h (1 Bft) 100,00 %
13.09.2018 12:22 15,5 C 16,1 C 14,4 C 92 % 1019,4 hPa 0,0 l/m 0 min 0 min 197 W/m 4,5 km/h (1 Bft) 95,83 %
13.09.2018 12:24 15,5 C 16,1 C 14,4 C 92 % 1019,4 hPa 0,0 l/m 0 min 0 min 175 W/m 6,8 km/h (2 Bft) 97,87 %
13.09.2018 12:26 15,5 C 16,1 C 14,4 C 92 % 1019,4 hPa 0,0 l/m 0 min 0 min 180 W/m 4,5 km/h (1 Bft) 95,74 %
13.09.2018 12:28 15,6 C 16,1 C 15,0 C 91 % 1019,4 hPa 0,0 l/m 0 min 0 min 197 W/m 4,5 km/h (1 Bft) 93,48 %
13.09.2018 12:30 15,6 C 16,1 C 15,0 C 91 % 1019,4 hPa 0,0 l/m 0 min 0 min 209 W/m 9,0 km/h (2 Bft) 95,74 %
13.09.2018 12:32 15,6 C 16,1 C 15,0 C 91 % 1019,4 hPa 0,0 l/m 0 min 0 min 235 W/m 4,5 km/h (1 Bft) 93,62 %
13.09.2018 12:34 15,7 C 16,7 C 15,0 C 91 % 1019,4 hPa 0,0 l/m 0 min 0 min 241 W/m 2,3 km/h (1 Bft) 97,87 %
13.09.2018 12:36 15,7 C 16,7 C 15,0 C 91 % 1019,4 hPa 0,0 l/m 0 min 0 min 262 W/m 9,0 km/h (2 Bft) 97,14 %
13.09.2018 12:38 15,7 C 16,7 C 15,0 C 90 % 1019,4 hPa 0,0 l/m 0 min 0 min 265 W/m 6,8 km/h (2 Bft) 98,33 %
13.09.2018 12:40 15,7 C 16,7 C 15,0 C 90 % 1019,4 hPa 0,0 l/m 0 min 0 min 244 W/m 4,5 km/h (1 Bft) 95,65 %
13.09.2018 12:42 15,8 C 16,7 C 15,0 C 90 % 1019,4 hPa 0,0 l/m 0 min 0 min 238 W/m 6,8 km/h (2 Bft) 95,74 %
13.09.2018 12:44 15,8 C 16,7 C 15,0 C 90 % 1019,4 hPa 0,0 l/m 0 min 0 min 198 W/m 15,8 km/h (3 Bft) 95,74 %
13.09.2018 12:46 15,8 C 16,7 C 15,0 C 90 % 1019,3 hPa 0,0 l/m 0 min 0 min 183 W/m 6,8 km/h (2 Bft) 95,74 %
13.09.2018 12:48 15,9 C 16,7 C 15,0 C 89 % 1019,4 hPa 0,0 l/m 0 min 0 min 225 W/m 11,3 km/h (2 Bft) 93,62 %
13.09.2018 12:50 15,9 C 16,7 C 15,0 C 89 % 1019,4 hPa 0,0 l/m 0 min 0 min 240 W/m 6,8 km/h (2 Bft) 95,74 %
13.09.2018 12:52 15,9 C 16,7 C 15,0 C 89 % 1019,4 hPa 0,0 l/m 0 min 0 min 252 W/m 6,8 km/h (2 Bft) 93,48 %
13.09.2018 12:54 16,0 C 17,2 C 15,0 C 88 % 1019,4 hPa 0,0 l/m 0 min 0 min 242 W/m 4,5 km/h (1 Bft) 95,74 %
13.09.2018 12:56 16,1 C 17,2 C 15,0 C 88 % 1019,3 hPa 0,0 l/m 0 min 0 min 195 W/m 2,3 km/h (1 Bft) 91,49 %
13.09.2018 12:58 16,1 C 16,7 C 15,6 C 89 % 1019,3 hPa 0,0 l/m 0 min 0 min 185 W/m 9,0 km/h (2 Bft) 95,74 %
13.09.2018 13:00 16,1 C 16,7 C 15,6 C 88 % 1019,3 hPa 0,0 l/m 0 min 0 min 206 W/m 6,8 km/h (2 Bft) 95,74 %
13.09.2018 13:02 16,2 C 17,2 C 15,6 C 88 % 1019,4 hPa 0,0 l/m 0 min 0 min 219 W/m 9,0 km/h (2 Bft) 93,62 %
13.09.2018 13:04 16,2 C 17,2 C 15,0 C 88 % 1019,3 hPa 0,0 l/m 0 min 0 min 250 W/m 6,8 km/h (2 Bft) 95,65 %
13.09.2018 13:06 16,2 C 17,2 C 15,6 C 87 % 1019,3 hPa 0,0 l/m 0 min 0 min 308 W/m 6,8 km/h (2 Bft) 95,74 %
13.09.2018 13:08 16,3 C 17,8 C 15,6 C 87 % 1019,3 hPa 0,0 l/m 2 min 0 min 368 W/m 9,0 km/h (2 Bft) 97,87 %
13.09.2018 13:10 16,3 C 18,3 C 15,6 C 87 % 1019,3 hPa 0,0 l/m 2 min 0 min 427 W/m 6,8 km/h (2 Bft) 97,87 %
13.09.2018 13:12 16,4 C 18,9 C 15,6 C 87 % 1019,3 hPa 0,0 l/m 2 min 0 min 466 W/m 4,5 km/h (1 Bft) 95,74 %
13.09.2018 13:14 16,4 C 18,9 C 16,1 C 87 % 1019,3 hPa 0,0 l/m 2 min 0 min 431 W/m 9,0 km/h (2 Bft) 97,87 %
13.09.2018 13:16 16,6 C 18,9 C 16,1 C 86 % 1019,3 hPa 0,0 l/m 2 min 0 min 390 W/m 6,8 km/h (2 Bft) 97,83 %
13.09.2018 13:18 16,6 C 18,9 C 16,1 C 86 % 1019,3 hPa 0,0 l/m 2 min 0 min 382 W/m 6,8 km/h (2 Bft) 97,87 %
13.09.2018 13:20 16,7 C 18,3 C 16,1 C 85 % 1019,3 hPa 0,0 l/m 2 min 0 min 381 W/m 6,8 km/h (2 Bft) 97,87 %
13.09.2018 13:22 16,7 C 18,9 C 16,1 C 85 % 1019,2 hPa 0,0 l/m 2 min 0 min 376 W/m 4,5 km/h (1 Bft) 95,74 %
13.09.2018 13:24 16,8 C 18,9 C 16,1 C 85 % 1019,2 hPa 0,0 l/m 2 min 0 min 370 W/m 4,5 km/h (1 Bft) 97,87 %
13.09.2018 13:26 16,8 C 18,3 C 16,1 C 85 % 1019,2 hPa 0,0 l/m 2 min 0 min 363 W/m 6,8 km/h (2 Bft) 97,83 %
13.09.2018 13:28 16,9 C 18,9 C 16,1 C 84 % 1019,2 hPa 0,0 l/m 2 min 0 min 344 W/m 4,5 km/h (1 Bft) 95,74 %
13.09.2018 13:30 17,0 C 18,3 C 16,1 C 84 % 1019,2 hPa 0,0 l/m 0 min 0 min 308 W/m 4,5 km/h (1 Bft) 97,87 %
13.09.2018 13:32 17,0 C 18,3 C 16,1 C 84 % 1019,1 hPa 0,0 l/m 0 min 0 min 298 W/m 6,8 km/h (2 Bft) 97,87 %
13.09.2018 13:34 17,1 C 18,3 C 16,1 C 83 % 1019,2 hPa 0,0 l/m 0 min 0 min 290 W/m 6,8 km/h (2 Bft) 97,87 %
13.09.2018 13:36 17,1 C 18,3 C 16,1 C 83 % 1019,2 hPa 0,0 l/m 0 min 0 min 291 W/m 6,8 km/h (2 Bft) 100,00 %
13.09.2018 13:38 17,2 C 18,3 C 16,1 C 83 % 1019,2 hPa 0,0 l/m 0 min 0 min 301 W/m 6,8 km/h (2 Bft) 100,00 %
13.09.2018 13:40 17,2 C 18,3 C 16,1 C 83 % 1019,2 hPa 0,0 l/m 0 min 0 min 315 W/m 6,8 km/h (2 Bft) 100,00 %
13.09.2018 13:42 17,2 C 18,3 C 16,1 C 82 % 1019,2 hPa 0,0 l/m 0 min 0 min 322 W/m 6,8 km/h (2 Bft) 100,00 %
13.09.2018 13:44 17,3 C 18,3 C 16,1 C 82 % 1019,2 hPa 0,0 l/m 0 min 0 min 320 W/m 11,3 km/h (2 Bft) 100,00 %
13.09.2018 13:46 17,3 C 18,9 C 16,1 C 81 % 1019,2 hPa 0,0 l/m 0 min 0 min 328 W/m 4,5 km/h (1 Bft) 100,00 %
13.09.2018 13:48 17,3 C 18,9 C 16,1 C 81 % 1019,2 hPa 0,0 l/m 2 min 0 min 355 W/m 9,0 km/h (2 Bft) 100,00 %
13.09.2018 13:50 17,4 C 19,4 C 16,1 C 81 % 1019,2 hPa 0,0 l/m 2 min 0 min 372 W/m 4,5 km/h (1 Bft) 100,00 %
13.09.2018 13:52 17,4 C 19,4 C 16,7 C 81 % 1019,2 hPa 0,0 l/m 2 min 0 min 391 W/m 4,5 km/h (1 Bft) 100,00 %
13.09.2018 13:54 17,5 C 19,4 C 16,7 C 81 % 1019,2 hPa 0,0 l/m 2 min 0 min 417 W/m 4,5 km/h (1 Bft) 100,00 %
13.09.2018 13:56 17,6 C 20,0 C 16,7 C 81 % 1019,2 hPa 0,0 l/m 2 min 0 min 522 W/m 4,5 km/h (1 Bft) 100,00 %
13.09.2018 13:58 17,6 C 20,6 C 16,7 C 81 % 1019,1 hPa 0,0 l/m 2 min 0 min 635 W/m 6,8 km/h (2 Bft) 100,00 %
13.09.2018 14:00 17,7 C 20,6 C 16,7 C 81 % 1019,1 hPa 0,0 l/m 2 min 0 min 674 W/m 6,8 km/h (2 Bft) 100,00 %
13.09.2018 14:02 17,8 C 19,4 C 16,7 C 81 % 1019,1 hPa 0,0 l/m 2 min 0 min 782 W/m 11,3 km/h (2 Bft) 98,00 %
13.09.2018 14:04 17,8 C 19,4 C 16,7 C 80 % 1019,1 hPa 0,0 l/m 2 min 0 min 714 W/m 6,8 km/h (2 Bft) 97,87 %
13.09.2018 14:06 17,9 C 19,4 C 16,7 C 80 % 1019,1 hPa 0,0 l/m 0 min 0 min 277 W/m 6,8 km/h (2 Bft) 97,87 %
13.09.2018 14:08 17,9 C 18,9 C 16,7 C 79 % 1019,1 hPa 0,0 l/m 0 min 0 min 223 W/m 6,8 km/h (2 Bft) 97,87 %
13.09.2018 14:10 18,0 C 18,3 C 16,1 C 79 % 1019,1 hPa 0,0 l/m 0 min 0 min 198 W/m 9,0 km/h (2 Bft) 95,74 %
13.09.2018 14:12 18,0 C 18,3 C 16,1 C 78 % 1019,2 hPa 0,0 l/m 0 min 0 min 177 W/m 6,8 km/h (2 Bft) 97,87 %
13.09.2018 14:14 18,0 C 18,3 C 16,1 C 78 % 1019,1 hPa 0,0 l/m 0 min 0 min 191 W/m 6,8 km/h (2 Bft) 97,83 %
13.09.2018 14:16 18,0 C 18,9 C 16,1 C 78 % 1019,1 hPa 0,0 l/m 2 min 0 min 557 W/m 9,0 km/h (2 Bft) 97,87 %
13.09.2018 14:18 18,0 C 18,9 C 16,7 C 78 % 1019,1 hPa 0,0 l/m 2 min 0 min 499 W/m 6,8 km/h (2 Bft) 97,87 %
13.09.2018 14:20 18,1 C 18,9 C 16,7 C 78 % 1019,1 hPa 0,0 l/m 2 min 0 min 621 W/m 4,5 km/h (1 Bft) 97,87 %
13.09.2018 14:22 18,1 C 19,4 C 16,7 C 77 % 1019,1 hPa 0,0 l/m 2 min 0 min 690 W/m 6,8 km/h (2 Bft) 97,87 %
13.09.2018 14:24 18,1 C 19,4 C 16,7 C 77 % 1019,1 hPa 0,0 l/m 2 min 0 min 698 W/m 6,8 km/h (2 Bft) 95,65 %
13.09.2018 14:26 18,2 C 19,4 C 16,7 C 77 % 1019,2 hPa 0,0 l/m 2 min 0 min 639 W/m 6,8 km/h (2 Bft) 97,87 %
13.09.2018 14:28 18,2 C 20,0 C 17,2 C 77 % 1019,2 hPa 0,0 l/m 2 min 0 min 547 W/m 6,8 km/h (2 Bft) 97,87 %
13.09.2018 14:30 18,3 C 20,0 C 17,2 C 77 % 1019,2 hPa 0,0 l/m 2 min 0 min 497 W/m 4,5 km/h (1 Bft) 97,87 %
13.09.2018 14:32 18,3 C 19,4 C 17,2 C 76 % 1019,2 hPa 0,0 l/m 2 min 0 min 353 W/m 6,8 km/h (2 Bft) 95,92 %
13.09.2018 14:34 18,4 C 19,4 C 17,2 C 76 % 1019,2 hPa 0,0 l/m 0 min 0 min 286 W/m 9,0 km/h (2 Bft) 97,87 %
13.09.2018 14:36 18,4 C 19,4 C 16,7 C 76 % 1019,2 hPa 0,0 l/m 0 min 0 min 267 W/m 6,8 km/h (2 Bft) 97,83 %
13.09.2018 14:38 18,4 C 18,9 C 16,7 C 75 % 1019,2 hPa 0,0 l/m 0 min 0 min 302 W/m 6,8 km/h (2 Bft) 97,87 %
13.09.2018 14:40 18,4 C 18,9 C 16,7 C 76 % 1019,2 hPa 0,0 l/m 0 min 0 min 285 W/m 9,0 km/h (2 Bft) 97,87 %
13.09.2018 14:42 18,5 C 18,9 C 16,7 C 76 % 1019,2 hPa 0,0 l/m 0 min 0 min 273 W/m 6,8 km/h (2 Bft) 97,87 %
13.09.2018 14:44 18,5 C 18,9 C 16,7 C 76 % 1019,1 hPa 0,0 l/m 0 min 0 min 291 W/m 9,0 km/h (2 Bft) 97,87 %
13.09.2018 14:46 18,6 C 18,9 C 16,7 C 75 % 1019,1 hPa 0,0 l/m 2 min 0 min 327 W/m 6,8 km/h (2 Bft) 97,87 %
13.09.2018 14:48 18,6 C 18,9 C 16,7 C 75 % 1019,1 hPa 0,0 l/m 2 min 0 min 360 W/m 9,0 km/h (2 Bft) 97,83 %
13.09.2018 14:50 18,6 C 19,4 C 17,2 C 75 % 1019,1 hPa 0,0 l/m 2 min 0 min 425 W/m 11,3 km/h (2 Bft) 97,87 %
13.09.2018 14:52 18,6 C 19,4 C 16,7 C 75 % 1019,1 hPa 0,0 l/m 2 min 0 min 446 W/m 11,3 km/h (2 Bft) 95,74 %
13.09.2018 14:54 18,6 C 19,4 C 17,2 C 75 % 1019,1 hPa 0,0 l/m 2 min 0 min 437 W/m 4,5 km/h (1 Bft) 95,74 %
13.09.2018 14:56 18,6 C 20,0 C 17,2 C 75 % 1019,0 hPa 0,0 l/m 2 min 0 min 398 W/m 4,5 km/h (1 Bft) 97,87 %
13.09.2018 14:58 18,7 C 20,0 C 17,2 C 75 % 1019,0 hPa 0,0 l/m 2 min 0 min 396 W/m 4,5 km/h (1 Bft) 97,87 %
13.09.2018 15:00 18,7 C 20,0 C 17,2 C 75 % 1018,9 hPa 0,0 l/m 2 min 0 min 441 W/m 6,8 km/h (2 Bft) 100,00 %
13.09.2018 15:06 18,7 C 19,4 C 17,2 C 74 % 1018,8 hPa 0,0 l/m 0 min 0 min 210 W/m 6,8 km/h (2 Bft) 100,00 %
13.09.2018 15:08 18,7 C 18,3 C 17,2 C 73 % 1018,8 hPa 0,0 l/m 0 min 0 min 216 W/m 9,0 km/h (2 Bft) 100,00 %
13.09.2018 15:10 18,7 C 18,9 C 17,2 C 73 % 1018,8 hPa 0,0 l/m 0 min 0 min 235 W/m 6,8 km/h (2 Bft) 93,62 %
13.09.2018 15:12 18,7 C 19,4 C 17,2 C 73 % 1018,7 hPa 0,0 l/m 0 min 0 min 274 W/m 4,5 km/h (1 Bft) 97,87 %
13.09.2018 15:14 18,7 C 19,4 C 17,2 C 73 % 1018,8 hPa 0,0 l/m 0 min 0 min 298 W/m 6,8 km/h (2 Bft) 95,74 %
13.09.2018 15:16 18,8 C 19,4 C 17,2 C 73 % 1018,8 hPa 0,0 l/m 2 min 0 min 314 W/m 6,8 km/h (2 Bft) 96,00 %
13.09.2018 15:18 18,8 C 19,4 C 17,2 C 73 % 1018,7 hPa 0,0 l/m 2 min 0 min 354 W/m 6,8 km/h (2 Bft) 97,83 %
13.09.2018 15:20 18,8 C 19,4 C 17,2 C 73 % 1018,7 hPa 0,0 l/m 2 min 0 min 399 W/m 6,8 km/h (2 Bft) 97,87 %
13.09.2018 15:22 18,8 C 19,4 C 17,2 C 73 % 1018,8 hPa 0,0 l/m 2 min 0 min 419 W/m 9,0 km/h (2 Bft) 95,74 %
13.09.2018 15:24 18,8 C 19,4 C 17,2 C 73 % 1018,7 hPa 0,0 l/m 2 min 0 min 390 W/m 4,5 km/h (1 Bft) 95,74 %
13.09.2018 15:26 18,9 C 20,0 C 17,2 C 73 % 1018,7 hPa 0,0 l/m 2 min 0 min 455 W/m 4,5 km/h (1 Bft) 93,62 %
13.09.2018 15:28 18,9 C 20,0 C 17,2 C 73 % 1018,7 hPa 0,0 l/m 2 min 0 min 493 W/m 6,8 km/h (2 Bft) 97,87 %
13.09.2018 15:30 18,9 C 19,4 C 17,2 C 73 % 1018,7 hPa 0,0 l/m 2 min 0 min 329 W/m 6,8 km/h (2 Bft) 93,48 %
13.09.2018 15:32 18,9 C 19,4 C 17,2 C 74 % 1018,7 hPa 0,0 l/m 0 min 0 min 257 W/m 6,8 km/h (2 Bft) 97,92 %
13.09.2018 15:34 18,9 C 18,9 C 17,2 C 72 % 1018,7 hPa 0,0 l/m 0 min 0 min 202 W/m 11,3 km/h (2 Bft) 95,74 %
13.09.2018 15:36 19,0 C 18,9 C 17,2 C 73 % 1018,7 hPa 0,0 l/m 0 min 0 min 165 W/m 9,0 km/h (2 Bft) 95,92 %
13.09.2018 15:38 18,9 C 18,9 C 16,7 C 72 % 1018,6 hPa 0,0 l/m 0 min 0 min 148 W/m 11,3 km/h (2 Bft) 97,83 %
13.09.2018 15:40 18,9 C 18,3 C 16,7 C 73 % 1018,7 hPa 0,0 l/m 0 min 0 min 141 W/m 4,5 km/h (1 Bft) 100,00 %
13.09.2018 15:42 18,9 C 18,9 C 16,7 C 73 % 1018,6 hPa 0,0 l/m 0 min 0 min 147 W/m 2,3 km/h (1 Bft) 95,74 %
13.09.2018 15:44 18,9 C 18,3 C 16,7 C 73 % 1018,7 hPa 0,0 l/m 0 min 0 min 159 W/m 4,5 km/h (1 Bft) 95,74 %
13.09.2018 15:46 18,9 C 18,9 C 16,7 C 73 % 1018,6 hPa 0,0 l/m 0 min 0 min 177 W/m 2,3 km/h (1 Bft) 97,87 %
13.09.2018 15:48 18,9 C 18,9 C 16,7 C 74 % 1018,6 hPa 0,0 l/m 0 min 0 min 198 W/m 6,8 km/h (2 Bft) 97,87 %
13.09.2018 15:50 18,9 C 18,9 C 16,7 C 73 % 1018,7 hPa 0,0 l/m 0 min 0 min 214 W/m 6,8 km/h (2 Bft) 97,83 %
13.09.2018 15:52 18,9 C 18,9 C 16,7 C 72 % 1018,6 hPa 0,0 l/m 0 min 0 min 224 W/m 6,8 km/h (2 Bft) 97,87 %
13.09.2018 15:54 18,9 C 18,9 C 16,7 C 72 % 1018,6 hPa 0,0 l/m 0 min 0 min 258 W/m 4,5 km/h (1 Bft) 97,87 %
13.09.2018 15:56 18,9 C 18,9 C 17,2 C 71 % 1018,6 hPa 0,0 l/m 2 min 0 min 383 W/m 9,0 km/h (2 Bft) 97,87 %
13.09.2018 15:58 18,9 C 19,4 C 17,2 C 72 % 1018,6 hPa 0,0 l/m 2 min 0 min 472 W/m 4,5 km/h (1 Bft) 97,87 %
13.09.2018 16:00 18,9 C 19,4 C 17,2 C 72 % 1018,6 hPa 0,0 l/m 2 min 0 min 398 W/m 4,5 km/h (1 Bft) 97,87 %
13.09.2018 16:02 18,9 C 19,4 C 17,8 C 71 % 1018,6 hPa 0,0 l/m 2 min 0 min 314 W/m 6,8 km/h (2 Bft) 95,65 %
13.09.2018 16:04 18,9 C 19,4 C 17,8 C 70 % 1018,5 hPa 0,0 l/m 2 min 0 min 356 W/m 4,5 km/h (1 Bft) 97,87 %
13.09.2018 16:06 18,9 C 19,4 C 17,2 C 71 % 1018,5 hPa 0,0 l/m 2 min 0 min 271 W/m 4,5 km/h (1 Bft) 97,67 %
13.09.2018 16:08 19,0 C 20,0 C 17,2 C 71 % 1018,4 hPa 0,0 l/m 2 min 0 min 283 W/m 9,0 km/h (2 Bft) 95,74 %
13.09.2018 16:10 19,0 C 19,4 C 17,2 C 71 % 1018,4 hPa 0,0 l/m 0 min 0 min 239 W/m 11,3 km/h (2 Bft) 97,87 %
13.09.2018 16:12 19,0 C 19,4 C 17,2 C 71 % 1018,5 hPa 0,0 l/m 0 min 0 min 238 W/m 6,8 km/h (2 Bft) 97,87 %
13.09.2018 16:14 19,1 C 19,4 C 17,2 C 71 % 1018,4 hPa 0,0 l/m 2 min 0 min 262 W/m 6,8 km/h (2 Bft) 97,87 %
13.09.2018 16:16 19,1 C 19,4 C 17,2 C 70 % 1018,4 hPa 0,0 l/m 2 min 0 min 302 W/m 9,0 km/h (2 Bft) 95,74 %
13.09.2018 16:18 19,1 C 19,4 C 17,2 C 69 % 1018,4 hPa 0,0 l/m 2 min 0 min 359 W/m 6,8 km/h (2 Bft) 97,83 %
13.09.2018 16:20 19,1 C 20,0 C 17,2 C 69 % 1018,4 hPa 0,0 l/m 2 min 0 min 406 W/m 13,5 km/h (3 Bft) 97,87 %
13.09.2018 16:22 19,1 C 20,0 C 17,2 C 70 % 1018,4 hPa 0,0 l/m 2 min 0 min 460 W/m 6,8 km/h (2 Bft) 97,87 %
13.09.2018 16:24 19,1 C 21,1 C 17,8 C 70 % 1018,4 hPa 0,0 l/m 2 min 0 min 392 W/m 6,8 km/h (2 Bft) 97,87 %
13.09.2018 16:26 19,2 C 21,7 C 17,8 C 71 % 1018,4 hPa 0,0 l/m 2 min 0 min 506 W/m 9,0 km/h (2 Bft) 95,74 %
13.09.2018 16:28 19,2 C 22,2 C 17,8 C 71 % 1018,4 hPa 0,0 l/m 2 min 0 min 546 W/m 9,0 km/h (2 Bft) 95,65 %
13.09.2018 16:30 19,2 C 21,7 C 17,8 C 70 % 1018,4 hPa 0,0 l/m 2 min 0 min 512 W/m 11,3 km/h (2 Bft) 97,87 %
13.09.2018 16:32 19,3 C 22,2 C 17,8 C 70 % 1018,4 hPa 0,0 l/m 2 min 0 min 437 W/m 4,5 km/h (1 Bft) 97,92 %
13.09.2018 16:34 19,3 C 21,7 C 17,8 C 70 % 1018,3 hPa 0,0 l/m 2 min 0 min 328 W/m 6,8 km/h (2 Bft) 100,00 %
13.09.2018 16:36 19,4 C 21,1 C 17,8 C 70 % 1018,3 hPa 0,0 l/m 2 min 0 min 272 W/m 6,8 km/h (2 Bft) 100,00 %
13.09.2018 16:38 19,4 C 20,0 C 17,8 C 69 % 1018,4 hPa 0,0 l/m 0 min 0 min 207 W/m 6,8 km/h (2 Bft) 100,00 %
13.09.2018 16:40 19,4 C 20,0 C 17,2 C 69 % 1018,4 hPa 0,0 l/m 0 min 0 min 181 W/m 6,8 km/h (2 Bft) 100,00 %
13.09.2018 16:42 19,4 C 19,4 C 17,2 C 69 % 1018,4 hPa 0,0 l/m 0 min 0 min 177 W/m 6,8 km/h (2 Bft) 97,87 %
13.09.2018 16:44 19,5 C 18,9 C 17,2 C 69 % 1018,4 hPa 0,0 l/m 0 min 0 min 184 W/m 6,8 km/h (2 Bft) 100,00 %
13.09.2018 16:46 19,5 C 19,4 C 17,2 C 68 % 1018,4 hPa 0,0 l/m 2 min 0 min 234 W/m 4,5 km/h (1 Bft) 100,00 %
13.09.2018 16:48 19,5 C 19,4 C 17,2 C 69 % 1018,4 hPa 0,0 l/m 2 min 0 min 226 W/m 4,5 km/h (1 Bft) 100,00 %
13.09.2018 16:50 19,5 C 19,4 C 17,2 C 69 % 1018,4 hPa 0,0 l/m 0 min 0 min 214 W/m 4,5 km/h (1 Bft) 100,00 %
13.09.2018 16:52 19,5 C 19,4 C 17,2 C 69 % 1018,3 hPa 0,0 l/m 0 min 0 min 193 W/m 4,5 km/h (1 Bft) 100,00 %
13.09.2018 16:54 19,5 C 18,9 C 17,2 C 69 % 1018,3 hPa 0,0 l/m 0 min 0 min 166 W/m 4,5 km/h (1 Bft) 100,00 %
13.09.2018 16:56 19,5 C 18,9 C 17,2 C 69 % 1018,3 hPa 0,0 l/m 0 min 0 min 147 W/m 9,0 km/h (2 Bft) 97,87 %
13.09.2018 16:58 19,4 C 18,9 C 17,2 C 68 % 1018,4 hPa 0,0 l/m 0 min 0 min 137 W/m 4,5 km/h (1 Bft) 100,00 %
13.09.2018 17:00 19,4 C 18,9 C 17,2 C 68 % 1018,3 hPa 0,0 l/m 0 min 0 min 135 W/m 6,8 km/h (2 Bft) 97,87 %
13.09.2018 17:02 19,4 C 18,9 C 17,2 C 68 % 1018,3 hPa 0,0 l/m 0 min 0 min 137 W/m 6,8 km/h (2 Bft) 97,92 %
13.09.2018 17:04 19,4 C 18,9 C 17,2 C 67 % 1018,3 hPa 0,0 l/m 0 min 0 min 143 W/m 6,8 km/h (2 Bft) 97,83 %
13.09.2018 17:06 19,3 C 18,9 C 17,2 C 68 % 1018,2 hPa 0,0 l/m 0 min 0 min 151 W/m 4,5 km/h (1 Bft) 97,96 %
13.09.2018 17:08 19,3 C 18,9 C 17,2 C 67 % 1018,3 hPa 0,0 l/m 0 min 0 min 161 W/m 4,5 km/h (1 Bft) 97,87 %
13.09.2018 17:10 19,3 C 18,9 C 17,2 C 67 % 1018,3 hPa 0,0 l/m 0 min 0 min 172 W/m 4,5 km/h (1 Bft) 97,87 %
13.09.2018 17:12 19,3 C 18,9 C 17,2 C 67 % 1018,2 hPa 0,0 l/m 0 min 0 min 181 W/m 9,0 km/h (2 Bft) 97,83 %
13.09.2018 17:14 19,2 C 18,9 C 17,2 C 67 % 1018,3 hPa 0,0 l/m 0 min 0 min 183 W/m 4,5 km/h (1 Bft) 97,87 %
13.09.2018 17:16 19,2 C 18,9 C 17,2 C 66 % 1018,2 hPa 0,0 l/m 0 min 0 min 182 W/m 6,8 km/h (2 Bft) 95,74 %
13.09.2018 17:18 19,2 C 18,9 C 17,2 C 67 % 1018,2 hPa 0,0 l/m 0 min 0 min 175 W/m 4,5 km/h (1 Bft) 97,87 %
13.09.2018 17:20 19,2 C 18,9 C 17,2 C 67 % 1018,2 hPa 0,0 l/m 0 min 0 min 170 W/m 9,0 km/h (2 Bft) 97,87 %
13.09.2018 17:22 19,2 C 18,9 C 17,2 C 68 % 1018,2 hPa 0,0 l/m 0 min 0 min 167 W/m 9,0 km/h (2 Bft) 97,87 %
13.09.2018 17:24 19,2 C 18,9 C 17,2 C 67 % 1018,2 hPa 0,0 l/m 0 min 0 min 169 W/m 9,0 km/h (2 Bft) 95,65 %
13.09.2018 17:26 19,2 C 18,9 C 17,2 C 67 % 1018,2 hPa 0,0 l/m 0 min 0 min 176 W/m 9,0 km/h (2 Bft) 93,62 %
13.09.2018 17:28 19,2 C 18,9 C 17,2 C 67 % 1018,2 hPa 0,0 l/m 2 min 0 min 182 W/m 6,8 km/h (2 Bft) 95,74 %
13.09.2018 17:30 19,1 C 18,9 C 17,2 C 67 % 1018,2 hPa 0,0 l/m 2 min 0 min 188 W/m 6,8 km/h (2 Bft) 95,74 %
13.09.2018 17:32 19,1 C 18,9 C 17,2 C 67 % 1018,2 hPa 0,0 l/m 2 min 0 min 189 W/m 4,5 km/h (1 Bft) 92,68 %
13.09.2018 17:34 19,1 C 18,9 C 17,2 C 67 % 1018,2 hPa 0,0 l/m 2 min 0 min 187 W/m 6,8 km/h (2 Bft) 95,74 %
13.09.2018 17:36 19,1 C 18,9 C 17,2 C 66 % 1018,2 hPa 0,0 l/m 2 min 0 min 186 W/m 11,3 km/h (2 Bft) 94,00 %
13.09.2018 17:38 19,1 C 18,9 C 17,2 C 66 % 1018,2 hPa 0,0 l/m 2 min 0 min 187 W/m 4,5 km/h (1 Bft) 95,65 %
13.09.2018 17:40 19,1 C 18,9 C 17,2 C 66 % 1018,2 hPa 0,0 l/m 2 min 0 min 195 W/m 2,3 km/h (1 Bft) 95,74 %
13.09.2018 17:42 19,1 C 18,9 C 17,2 C 66 % 1018,2 hPa 0,0 l/m 2 min 0 min 246 W/m 4,5 km/h (1 Bft) 95,74 %
13.09.2018 17:44 19,1 C 19,4 C 17,2 C 66 % 1018,2 hPa 0,0 l/m 2 min 0 min 287 W/m 6,8 km/h (2 Bft) 93,62 %
13.09.2018 17:46 19,1 C 19,4 C 17,2 C 66 % 1018,2 hPa 0,0 l/m 2 min 0 min 273 W/m 6,8 km/h (2 Bft) 93,62 %
13.09.2018 17:48 19,1 C 19,4 C 17,2 C 66 % 1018,2 hPa 0,0 l/m 2 min 0 min 282 W/m 6,8 km/h (2 Bft) 97,87 %
13.09.2018 17:50 19,1 C 19,4 C 17,8 C 65 % 1018,2 hPa 0,0 l/m 2 min 0 min 257 W/m 9,0 km/h (2 Bft) 95,65 %
13.09.2018 17:52 19,1 C 19,4 C 17,2 C 64 % 1018,2 hPa 0,0 l/m 2 min 0 min 242 W/m 4,5 km/h (1 Bft) 97,87 %
13.09.2018 17:54 19,1 C 19,4 C 17,2 C 65 % 1018,3 hPa 0,0 l/m 2 min 0 min 275 W/m 4,5 km/h (1 Bft) 98,00 %
13.09.2018 17:56 19,1 C 19,4 C 17,2 C 65 % 1018,2 hPa 0,0 l/m 2 min 0 min 319 W/m 6,8 km/h (2 Bft) 95,74 %
13.09.2018 17:58 19,1 C 19,4 C 17,2 C 65 % 1018,3 hPa 0,0 l/m 2 min 0 min 258 W/m 6,8 km/h (2 Bft) 95,65 %
13.09.2018 18:00 19,1 C 19,4 C 17,2 C 65 % 1018,3 hPa 0,0 l/m 2 min 0 min 225 W/m 6,8 km/h (2 Bft) 93,62 %
13.09.2018 18:02 19,1 C 18,9 C 17,2 C 65 % 1018,3 hPa 0,0 l/m 2 min 0 min 199 W/m 9,0 km/h (2 Bft) 97,87 %
13.09.2018 18:04 19,1 C 18,9 C 17,2 C 65 % 1018,2 hPa 0,0 l/m 0 min 0 min 132 W/m 4,5 km/h (1 Bft) 97,87 %
13.09.2018 18:06 19,1 C 18,9 C 17,2 C 65 % 1018,1 hPa 0,0 l/m 0 min 0 min 121 W/m 4,5 km/h (1 Bft) 100,00 %
13.09.2018 18:08 19,1 C 18,3 C 17,2 C 66 % 1018,1 hPa 0,0 l/m 0 min 0 min 118 W/m 4,5 km/h (1 Bft) 97,87 %
13.09.2018 18:10 19,1 C 18,3 C 17,2 C 66 % 1018,2 hPa 0,0 l/m 0 min 0 min 102 W/m 4,5 km/h (1 Bft) 100,00 %
13.09.2018 18:12 19,1 C 18,3 C 17,2 C 66 % 1018,0 hPa 0,0 l/m 0 min 0 min 101 W/m 2,3 km/h (1 Bft) 100,00 %
13.09.2018 18:14 19,1 C 18,3 C 17,2 C 65 % 1018,1 hPa 0,0 l/m 0 min 0 min 116 W/m 4,5 km/h (1 Bft) 100,00 %
13.09.2018 18:16 19,0 C 18,3 C 17,2 C 65 % 1018,2 hPa 0,0 l/m 2 min 0 min 123 W/m 9,0 km/h (2 Bft) 100,00 %
13.09.2018 18:18 19,0 C 18,3 C 17,2 C 65 % 1018,2 hPa 0,0 l/m 2 min 0 min 186 W/m 4,5 km/h (1 Bft) 97,87 %
13.09.2018 18:20 19,0 C 18,3 C 16,7 C 65 % 1018,0 hPa 0,0 l/m 0 min 0 min 112 W/m 6,8 km/h (2 Bft) 100,00 %
13.09.2018 18:22 18,9 C 17,8 C 16,7 C 66 % 1018,0 hPa 0,0 l/m 0 min 0 min 92 W/m 6,8 km/h (2 Bft) 100,00 %
13.09.2018 18:24 18,9 C 17,8 C 16,7 C 66 % 1018,1 hPa 0,0 l/m 0 min 0 min 75 W/m 6,8 km/h (2 Bft) 100,00 %
13.09.2018 18:26 18,9 C 17,8 C 16,7 C 66 % 1018,0 hPa 0,0 l/m 0 min 0 min 68 W/m 2,3 km/h (1 Bft) 100,00 %
13.09.2018 18:28 18,8 C 17,8 C 16,7 C 66 % 1018,0 hPa 0,0 l/m 0 min 0 min 62 W/m 4,5 km/h (1 Bft) 93,62 %
13.09.2018 18:30 18,8 C 17,8 C 16,7 C 66 % 1018,0 hPa 0,0 l/m 0 min 0 min 66 W/m 2,3 km/h (1 Bft) 100,00 %
13.09.2018 18:32 18,8 C 17,2 C 16,7 C 67 % 1018,1 hPa 0,0 l/m 0 min 0 min 82 W/m 2,3 km/h (1 Bft) 97,87 %
13.09.2018 18:34 18,7 C 17,2 C 16,7 C 67 % 1018,2 hPa 0,0 l/m 2 min 0 min 104 W/m 0,0 km/h (0 Bft) 97,83 %
13.09.2018 18:36 18,7 C 17,2 C 16,7 C 67 % 1018,2 hPa 0,0 l/m 0 min 0 min 82 W/m 0,0 km/h (0 Bft) 97,73 %
13.09.2018 18:38 18,6 C 17,2 C 16,7 C 67 % 1018,2 hPa 0,0 l/m 2 min 0 min 121 W/m 6,8 km/h (2 Bft) 97,83 %
13.09.2018 18:40 18,6 C 17,8 C 16,7 C 67 % 1018,0 hPa 0,0 l/m 2 min 0 min 155 W/m 4,5 km/h (1 Bft) 100,00 %
13.09.2018 18:42 18,5 C 17,8 C 16,7 C 67 % 1018,0 hPa 0,0 l/m 2 min 0 min 102 W/m 4,5 km/h (1 Bft) 97,87 %
13.09.2018 18:44 18,4 C 17,8 C 16,7 C 68 % 1018,0 hPa 0,0 l/m 2 min 0 min 139 W/m 2,3 km/h (1 Bft) 95,74 %
13.09.2018 18:46 18,4 C 17,8 C 16,7 C 68 % 1018,0 hPa 0,0 l/m 0 min 0 min 74 W/m 2,3 km/h (1 Bft) 97,87 %
13.09.2018 18:48 18,4 C 17,8 C 16,7 C 68 % 1018,1 hPa 0,0 l/m 0 min 0 min 74 W/m 2,3 km/h (1 Bft) 97,87 %
13.09.2018 18:50 18,3 C 17,8 C 16,7 C 68 % 1018,0 hPa 0,0 l/m 2 min 0 min 118 W/m 2,3 km/h (1 Bft) 97,83 %
13.09.2018 18:52 18,3 C 17,8 C 16,7 C 69 % 1018,1 hPa 0,0 l/m 0 min 0 min 60 W/m 2,3 km/h (1 Bft) 98,00 %
13.09.2018 18:54 18,3 C 17,8 C 16,7 C 69 % 1018,1 hPa 0,0 l/m 0 min 0 min 42 W/m 0,0 km/h (0 Bft) 97,87 %
13.09.2018 18:56 18,3 C 17,8 C 16,1 C 69 % 1018,1 hPa 0,0 l/m 0 min 0 min 42 W/m 0,0 km/h (0 Bft) 97,87 %
13.09.2018 18:58 18,3 C 17,8 C 16,1 C 70 % 1018,1 hPa 0,0 l/m 0 min 0 min 40 W/m 0,0 km/h (0 Bft) 97,87 %
13.09.2018 19:00 18,3 C 17,8 C 16,1 C 70 % 1018,1 hPa 0,0 l/m 0 min 0 min 40 W/m 2,3 km/h (1 Bft) 95,65 %
13.09.2018 19:02 18,3 C 17,8 C 16,1 C 70 % 1018,1 hPa 0,0 l/m 0 min 0 min 40 W/m 0,0 km/h (0 Bft) 95,83 %
13.09.2018 19:04 18,2 C 17,2 C 16,1 C 70 % 1018,2 hPa 0,0 l/m 0 min 0 min 40 W/m 4,5 km/h (1 Bft) 97,87 %
13.09.2018 19:06 18,2 C 17,2 C 16,1 C 69 % 1018,1 hPa 0,0 l/m 0 min 0 min 39 W/m 2,3 km/h (1 Bft) 95,74 %
13.09.2018 19:08 18,2 C 17,2 C 16,1 C 68 % 1018,1 hPa 0,0 l/m 0 min 0 min 40 W/m 2,3 km/h (1 Bft) 97,87 %
13.09.2018 19:10 18,2 C 17,2 C 15,6 C 67 % 1018,2 hPa 0,0 l/m 0 min 0 min 40 W/m 2,3 km/h (1 Bft) 97,83 %
13.09.2018 19:12 18,1 C 17,2 C 15,6 C 68 % 1018,2 hPa 0,0 l/m 0 min 0 min 44 W/m 0,0 km/h (0 Bft) 97,87 %
13.09.2018 19:14 18,1 C 16,7 C 15,6 C 68 % 1018,3 hPa 0,0 l/m 2 min 0 min 46 W/m 0,0 km/h (0 Bft) 97,87 %
13.09.2018 19:16 18,1 C 16,7 C 15,6 C 69 % 1018,2 hPa 0,0 l/m 0 min 0 min 42 W/m 0,0 km/h (0 Bft) 97,87 %
13.09.2018 19:18 18,1 C 16,7 C 15,6 C 69 % 1018,2 hPa 0,0 l/m 0 min 0 min 37 W/m 0,0 km/h (0 Bft) 97,87 %
13.09.2018 19:20 18,1 C 16,7 C 15,6 C 69 % 1018,2 hPa 0,0 l/m 0 min 0 min 31 W/m 4,5 km/h (1 Bft) 97,87 %
13.09.2018 19:22 18,0 C 16,7 C 15,6 C 68 % 1018,3 hPa 0,0 l/m 0 min 0 min 26 W/m 4,5 km/h (1 Bft) 97,83 %
13.09.2018 19:24 17,9 C 16,7 C 15,6 C 67 % 1018,2 hPa 0,0 l/m 0 min 0 min 24 W/m 4,5 km/h (1 Bft) 97,62 %
13.09.2018 19:26 17,9 C 16,7 C 15,6 C 67 % 1018,4 hPa 0,0 l/m 0 min 0 min 23 W/m 2,3 km/h (1 Bft) 97,87 %
13.09.2018 19:28 17,9 C 16,1 C 15,0 C 67 % 1018,3 hPa 0,0 l/m 0 min 0 min 21 W/m 2,3 km/h (1 Bft) 97,87 %
13.09.2018 19:30 17,8 C 16,1 C 15,0 C 67 % 1018,2 hPa 0,0 l/m 0 min 0 min 21 W/m 6,8 km/h (2 Bft) 97,87 %
13.09.2018 19:32 17,8 C 16,1 C 15,6 C 67 % 1018,3 hPa 0,0 l/m 0 min 0 min 19 W/m 6,8 km/h (2 Bft) 100,00 %
13.09.2018 19:34 17,7 C 16,1 C 15,0 C 67 % 1018,3 hPa 0,0 l/m 0 min 0 min 17 W/m 2,3 km/h (1 Bft) 100,00 %
13.09.2018 19:36 17,7 C 16,1 C 15,0 C 67 % 1018,4 hPa 0,0 l/m 0 min 0 min 15 W/m 0,0 km/h (0 Bft) 98,00 %
13.09.2018 19:38 17,6 C 15,6 C 15,0 C 67 % 1018,4 hPa 0,0 l/m 0 min 0 min 14 W/m 2,3 km/h (1 Bft) 100,00 %
13.09.2018 19:40 17,6 C 15,6 C 15,0 C 67 % 1018,3 hPa 0,0 l/m 0 min 0 min 12 W/m 0,0 km/h (0 Bft) 97,87 %
13.09.2018 19:42 17,5 C 15,6 C 15,0 C 67 % 1018,3 hPa 0,0 l/m 0 min 0 min 11 W/m 0,0 km/h (0 Bft) 97,87 %
13.09.2018 19:44 17,4 C 15,6 C 15,0 C 67 % 1018,3 hPa 0,0 l/m 0 min 0 min 10 W/m 0,0 km/h (0 Bft) 97,83 %
13.09.2018 19:46 17,4 C 15,6 C 14,4 C 67 % 1018,3 hPa 0,0 l/m 0 min 0 min 9 W/m 0,0 km/h (0 Bft) 100,00 %
13.09.2018 19:48 17,4 C 15,6 C 14,4 C 68 % 1018,3 hPa 0,0 l/m 0 min 0 min 8 W/m 0,0 km/h (0 Bft) 100,00 %
13.09.2018 19:50 17,3 C 15,6 C 14,4 C 68 % 1018,3 hPa 0,0 l/m 0 min 0 min 7 W/m 0,0 km/h (0 Bft) 97,87 %
13.09.2018 19:52 17,3 C 15,0 C 14,4 C 68 % 1018,3 hPa 0,0 l/m 0 min 0 min 7 W/m 0,0 km/h (0 Bft) 97,87 %
13.09.2018 19:54 17,2 C 15,0 C 13,9 C 68 % 1018,2 hPa 0,0 l/m 0 min 0 min 5 W/m 0,0 km/h (0 Bft) 97,87 %
13.09.2018 19:56 17,2 C 15,0 C 13,9 C 69 % 1018,2 hPa 0,0 l/m 0 min 0 min 5 W/m 0,0 km/h (0 Bft) 97,83 %
13.09.2018 19:58 17,1 C 14,4 C 13,9 C 69 % 1018,3 hPa 0,0 l/m 0 min 0 min 5 W/m 0,0 km/h (0 Bft) 95,74 %
13.09.2018 20:00 17,0 C 14,4 C 13,9 C 69 % 1018,3 hPa 0,0 l/m 0 min 0 min 1 W/m 0,0 km/h (0 Bft) 97,87 %
13.09.2018 20:02 16,9 C 14,4 C 13,9 C 69 % 1018,3 hPa 0,0 l/m 0 min 0 min 0 W/m 0,0 km/h (0 Bft) 93,62 %
13.09.2018 20:04 16,8 C 14,4 C 13,9 C 70 % 1018,3 hPa 0,0 l/m 0 min 0 min 0 W/m 0,0 km/h (0 Bft) 95,74 %
13.09.2018 20:06 16,8 C 14,4 C 13,9 C 70 % 1018,4 hPa 0,0 l/m 0 min 0 min 0 W/m 0,0 km/h (0 Bft) 95,24 %
13.09.2018 20:08 16,7 C 14,4 C 13,9 C 70 % 1018,4 hPa 0,0 l/m 0 min 0 min 0 W/m 0,0 km/h (0 Bft) 95,74 %
13.09.2018 20:10 16,6 C 14,4 C 13,9 C 70 % 1018,4 hPa 0,0 l/m 0 min 0 min 0 W/m 9,0 km/h (2 Bft) 95,74 %
13.09.2018 20:12 16,6 C 14,4 C 13,9 C 69 % 1018,3 hPa 0,0 l/m 0 min 0 min 0 W/m 4,5 km/h (1 Bft) 95,65 %
13.09.2018 20:14 16,5 C 14,4 C 13,9 C 69 % 1018,3 hPa 0,0 l/m 0 min 0 min 0 W/m 2,3 km/h (1 Bft) 95,74 %
13.09.2018 20:16 16,4 C 14,4 C 13,9 C 70 % 1018,3 hPa 0,0 l/m 0 min 0 min 0 W/m 2,3 km/h (1 Bft) 95,74 %
13.09.2018 20:18 16,4 C 14,4 C 13,9 C 70 % 1018,3 hPa 0,0 l/m 0 min 0 min 0 W/m 0,0 km/h (0 Bft) 95,74 %
13.09.2018 20:20 16,3 C 14,4 C 13,9 C 70 % 1018,4 hPa 0,0 l/m 0 min 0 min 0 W/m 0,0 km/h (0 Bft) 92,16 %
13.09.2018 20:22 16,3 C 14,4 C 13,9 C 70 % 1018,4 hPa 0,0 l/m 0 min 0 min 0 W/m 0,0 km/h (0 Bft) 95,45 %
13.09.2018 20:24 16,2 C 14,4 C 13,9 C 71 % 1018,4 hPa 0,0 l/m 0 min 0 min 0 W/m 0,0 km/h (0 Bft) 95,74 %
13.09.2018 20:26 16,2 C 14,4 C 13,9 C 71 % 1018,4 hPa 0,0 l/m 0 min 0 min 0 W/m 0,0 km/h (0 Bft) 95,74 %
13.09.2018 20:28 16,1 C 14,4 C 13,9 C 71 % 1018,4 hPa 0,0 l/m 0 min 0 min 0 W/m 0,0 km/h (0 Bft) 95,74 %
13.09.2018 20:30 16,1 C 14,4 C 13,3 C 71 % 1018,5 hPa 0,0 l/m 0 min 0 min 0 W/m 0,0 km/h (0 Bft) 95,74 %
13.09.2018 20:32 16,1 C 14,4 C 13,3 C 71 % 1018,4 hPa 0,0 l/m 0 min 0 min 0 W/m 0,0 km/h (0 Bft) 95,83 %
13.09.2018 20:34 16,0 C 14,4 C 13,3 C 71 % 1018,5 hPa 0,0 l/m 0 min 0 min 0 W/m 0,0 km/h (0 Bft) 95,65 %
13.09.2018 20:36 15,9 C 14,4 C 13,3 C 71 % 1018,6 hPa 0,0 l/m 0 min 0 min 0 W/m 0,0 km/h (0 Bft) 93,88 %
13.09.2018 20:38 15,9 C 14,4 C 13,3 C 71 % 1018,6 hPa 0,0 l/m 0 min 0 min 0 W/m 2,3 km/h (1 Bft) 95,74 %
13.09.2018 20:40 15,8 C 14,4 C 13,3 C 71 % 1018,6 hPa 0,0 l/m 0 min 0 min 0 W/m 4,5 km/h (1 Bft) 95,74 %
13.09.2018 20:42 15,8 C 14,4 C 13,3 C 71 % 1018,6 hPa 0,0 l/m 0 min 0 min 0 W/m 0,0 km/h (0 Bft) 97,83 %
13.09.2018 20:44 15,7 C 13,9 C 13,3 C 71 % 1018,6 hPa 0,0 l/m 0 min 0 min 0 W/m 0,0 km/h (0 Bft) 97,87 %
13.09.2018 20:46 15,7 C 13,9 C 13,3 C 72 % 1018,6 hPa 0,0 l/m 0 min 0 min 0 W/m 0,0 km/h (0 Bft) 95,74 %
13.09.2018 20:48 15,7 C 13,9 C 13,3 C 72 % 1018,7 hPa 0,0 l/m 0 min 0 min 0 W/m 0,0 km/h (0 Bft) 97,87 %
13.09.2018 20:50 15,6 C 13,9 C 13,3 C 72 % 1018,7 hPa 0,0 l/m 0 min 0 min 0 W/m 0,0 km/h (0 Bft) 95,74 %
13.09.2018 20:52 15,6 C 13,9 C 13,3 C 72 % 1018,7 hPa 0,0 l/m 0 min 0 min 0 W/m 0,0 km/h (0 Bft) 95,74 %
13.09.2018 20:54 15,5 C 13,9 C 13,3 C 72 % 1018,7 hPa 0,0 l/m 0 min 0 min 0 W/m 0,0 km/h (0 Bft) 97,83 %
13.09.2018 20:56 15,5 C 13,9 C 13,3 C 72 % 1018,7 hPa 0,0 l/m 0 min 0 min 0 W/m 0,0 km/h (0 Bft) 95,74 %
13.09.2018 20:58 15,4 C 13,9 C 13,3 C 72 % 1018,7 hPa 0,0 l/m 0 min 0 min 0 W/m 0,0 km/h (0 Bft) 93,62 %
13.09.2018 21:00 15,4 C 13,9 C 12,8 C 72 % 1018,8 hPa 0,0 l/m 0 min 0 min 0 W/m 0,0 km/h (0 Bft) 95,74 %
13.09.2018 21:02 15,3 C 13,9 C 12,8 C 73 % 1018,8 hPa 0,0 l/m 0 min 0 min 0 W/m 0,0 km/h (0 Bft) 97,87 %
13.09.2018 21:04 15,3 C 13,3 C 12,8 C 73 % 1018,8 hPa 0,0 l/m 0 min 0 min 0 W/m 0,0 km/h (0 Bft) 97,87 %
13.09.2018 21:06 15,3 C 13,3 C 12,8 C 74 % 1018,8 hPa 0,0 l/m 0 min 0 min 0 W/m 0,0 km/h (0 Bft) 97,67 %
13.09.2018 21:08 15,2 C 13,9 C 12,8 C 74 % 1018,8 hPa 0,0 l/m 0 min 0 min 0 W/m 0,0 km/h (0 Bft) 97,87 %
13.09.2018 21:10 15,2 C 13,3 C 12,8 C 74 % 1018,9 hPa 0,0 l/m 0 min 0 min 0 W/m 0,0 km/h (0 Bft) 95,65 %
13.09.2018 21:12 15,2 C 13,3 C 12,8 C 74 % 1018,9 hPa 0,0 l/m 0 min 0 min 0 W/m 0,0 km/h (0 Bft) 100,00 %
13.09.2018 21:14 15,1 C 13,3 C 12,8 C 75 % 1018,9 hPa 0,0 l/m 0 min 0 min 0 W/m 0,0 km/h (0 Bft) 95,74 %
13.09.2018 21:16 15,1 C 13,3 C 12,8 C 75 % 1018,9 hPa 0,0 l/m 0 min 0 min 0 W/m 0,0 km/h (0 Bft) 95,74 %
13.09.2018 21:18 15,0 C 13,3 C 12,8 C 75 % 1018,9 hPa 0,0 l/m 0 min 0 min 0 W/m 0,0 km/h (0 Bft) 95,74 %
13.09.2018 21:20 14,9 C 13,3 C 12,8 C 76 % 1018,9 hPa 0,0 l/m 0 min 0 min 0 W/m 0,0 km/h (0 Bft) 97,87 %
13.09.2018 21:22 14,9 C 12,8 C 12,8 C 76 % 1018,9 hPa 0,0 l/m 0 min 0 min 0 W/m 0,0 km/h (0 Bft) 97,83 %
13.09.2018 21:24 14,9 C 12,8 C 12,8 C 76 % 1018,9 hPa 0,0 l/m 0 min 0 min 0 W/m 0,0 km/h (0 Bft) 95,74 %
13.09.2018 21:26 14,8 C 12,8 C 12,8 C 76 % 1019,0 hPa 0,0 l/m 0 min 0 min 0 W/m 0,0 km/h (0 Bft) 97,87 %
13.09.2018 21:28 14,8 C 12,8 C 12,2 C 77 % 1018,9 hPa 0,0 l/m 0 min 0 min 0 W/m 0,0 km/h (0 Bft) 97,87 %
13.09.2018 21:30 14,7 C 12,8 C 12,2 C 77 % 1019,0 hPa 0,0 l/m 0 min 0 min 0 W/m 0,0 km/h (0 Bft) 97,87 %
13.09.2018 21:32 14,7 C 12,8 C 12,2 C 77 % 1019,0 hPa 0,0 l/m 0 min 0 min 0 W/m 0,0 km/h (0 Bft) 97,96 %
13.09.2018 21:34 14,6 C 12,8 C 12,2 C 77 % 1019,0 hPa 0,0 l/m 0 min 0 min 0 W/m 0,0 km/h (0 Bft) 95,65 %
13.09.2018 21:36 14,6 C 12,8 C 12,2 C 78 % 1019,0 hPa 0,0 l/m 0 min 0 min 0 W/m 0,0 km/h (0 Bft) 97,96 %
13.09.2018 21:38 14,5 C 12,8 C 12,2 C 78 % 1019,0 hPa 0,0 l/m 0 min 0 min 0 W/m 0,0 km/h (0 Bft) 97,87 %
13.09.2018 21:40 14,5 C 12,8 C 12,2 C 78 % 1019,0 hPa 0,0 l/m 0 min 0 min 0 W/m 0,0 km/h (0 Bft) 97,87 %
13.09.2018 21:42 14,4 C 12,2 C 12,2 C 79 % 1019,0 hPa 0,0 l/m 0 min 0 min 0 W/m 0,0 km/h (0 Bft) 97,83 %
13.09.2018 21:44 14,4 C 12,2 C 12,2 C 79 % 1019,0 hPa 0,0 l/m 0 min 0 min 0 W/m 0,0 km/h (0 Bft) 97,87 %
13.09.2018 21:46 14,3 C 12,2 C 12,2 C 79 % 1019,0 hPa 0,0 l/m 0 min 0 min 0 W/m 0,0 km/h (0 Bft) 95,74 %
13.09.2018 21:48 14,2 C 12,2 C 12,2 C 79 % 1019,0 hPa 0,0 l/m 0 min 0 min 0 W/m 0,0 km/h (0 Bft) 97,87 %
13.09.2018 21:50 14,2 C 12,2 C 12,2 C 80 % 1019,1 hPa 0,0 l/m 0 min 0 min 0 W/m 0,0 km/h (0 Bft) 100,00 %
13.09.2018 21:52 14,2 C 12,2 C 12,2 C 80 % 1019,1 hPa 0,0 l/m 0 min 0 min 0 W/m 0,0 km/h (0 Bft) 100,00 %
13.09.2018 21:54 14,2 C 12,2 C 11,7 C 80 % 1019,1 hPa 0,0 l/m 0 min 0 min 0 W/m 0,0 km/h (0 Bft) 100,00 %
13.09.2018 21:56 14,2 C 12,2 C 11,7 C 80 % 1019,0 hPa 0,0 l/m 0 min 0 min 0 W/m 0,0 km/h (0 Bft) 100,00 %
13.09.2018 21:58 14,1 C 12,2 C 11,7 C 80 % 1019,1 hPa 0,0 l/m 0 min 0 min 0 W/m 0,0 km/h (0 Bft) 97,87 %
13.09.2018 22:00 14,0 C 12,2 C 11,7 C 80 % 1019,2 hPa 0,0 l/m 0 min 0 min 0 W/m 0,0 km/h (0 Bft) 100,00 %
13.09.2018 22:02 13,9 C 12,2 C 11,7 C 81 % 1019,1 hPa 0,0 l/m 0 min 0 min 0 W/m 0,0 km/h (0 Bft) 100,00 %
13.09.2018 22:04 13,8 C 11,7 C 11,7 C 81 % 1019,1 hPa 0,0 l/m 0 min 0 min 0 W/m 0,0 km/h (0 Bft) 100,00 %
13.09.2018 22:06 13,8 C 11,7 C 11,7 C 81 % 1019,2 hPa 0,0 l/m 0 min 0 min 0 W/m 0,0 km/h (0 Bft) 100,00 %
13.09.2018 22:08 13,7 C 11,7 C 11,7 C 81 % 1019,2 hPa 0,0 l/m 0 min 0 min 0 W/m 0,0 km/h (0 Bft) 100,00 %
13.09.2018 22:10 13,7 C 11,7 C 11,7 C 81 % 1019,2 hPa 0,0 l/m 0 min 0 min 0 W/m 0,0 km/h (0 Bft) 100,00 %
13.09.2018 22:12 13,6 C 11,7 C 11,7 C 81 % 1019,2 hPa 0,0 l/m 0 min 0 min 0 W/m 0,0 km/h (0 Bft) 97,87 %
13.09.2018 22:14 13,6 C 11,7 C 11,7 C 81 % 1019,2 hPa 0,0 l/m 0 min 0 min 0 W/m 0,0 km/h (0 Bft) 100,00 %
13.09.2018 22:16 13,5 C 11,7 C 11,1 C 82 % 1019,2 hPa 0,0 l/m 0 min 0 min 0 W/m 0,0 km/h (0 Bft) 100,00 %
13.09.2018 22:18 13,4 C 11,7 C 11,1 C 82 % 1019,2 hPa 0,0 l/m 0 min 0 min 0 W/m 0,0 km/h (0 Bft) 100,00 %
13.09.2018 22:20 13,4 C 11,7 C 11,1 C 82 % 1019,2 hPa 0,0 l/m 0 min 0 min 0 W/m 0,0 km/h (0 Bft) 100,00 %
13.09.2018 22:22 13,3 C 11,7 C 11,1 C 82 % 1019,3 hPa 0,0 l/m 0 min 0 min 0 W/m 0,0 km/h (0 Bft) 100,00 %
13.09.2018 22:24 13,3 C 11,7 C 11,1 C 82 % 1019,2 hPa 0,0 l/m 0 min 0 min 0 W/m 0,0 km/h (0 Bft) 97,87 %
13.09.2018 22:26 13,2 C 11,7 C 11,1 C 82 % 1019,2 hPa 0,0 l/m 0 min 0 min 0 W/m 0,0 km/h (0 Bft) 100,00 %
13.09.2018 22:28 13,2 C 11,7 C 11,1 C 82 % 1019,2 hPa 0,0 l/m 0 min 0 min 0 W/m 0,0 km/h (0 Bft) 100,00 %
13.09.2018 22:30 13,1 C 11,7 C 11,1 C 82 % 1019,2 hPa 0,0 l/m 0 min 0 min 0 W/m 0,0 km/h (0 Bft) 100,00 %
13.09.2018 22:32 13,1 C 11,7 C 11,1 C 82 % 1019,1 hPa 0,0 l/m 0 min 0 min 0 W/m 0,0 km/h (0 Bft) 100,00 %
13.09.2018 22:34 13,0 C 11,1 C 11,1 C 82 % 1019,1 hPa 0,0 l/m 0 min 0 min 0 W/m 0,0 km/h (0 Bft) 100,00 %
13.09.2018 22:36 12,9 C 11,1 C 10,6 C 82 % 1019,1 hPa 0,0 l/m 0 min 0 min 0 W/m 0,0 km/h (0 Bft) 98,00 %
13.09.2018 22:38 12,9 C 11,1 C 10,6 C 82 % 1019,2 hPa 0,0 l/m 0 min 0 min 0 W/m 0,0 km/h (0 Bft) 100,00 %
13.09.2018 22:40 12,9 C 11,1 C 11,1 C 83 % 1019,1 hPa 0,0 l/m 0 min 0 min 0 W/m 0,0 km/h (0 Bft) 100,00 %
13.09.2018 22:42 12,8 C 11,1 C 11,1 C 83 % 1019,1 hPa 0,0 l/m 0 min 0 min 0 W/m 0,0 km/h (0 Bft) 100,00 %
13.09.2018 22:44 12,7 C 11,1 C 11,1 C 83 % 1019,1 hPa 0,0 l/m 0 min 0 min 0 W/m 0,0 km/h (0 Bft) 100,00 %
13.09.2018 22:46 12,7 C 11,1 C 11,1 C 83 % 1019,2 hPa 0,0 l/m 0 min 0 min 0 W/m 0,0 km/h (0 Bft) 97,87 %
13.09.2018 22:48 12,7 C 11,1 C 11,1 C 83 % 1019,2 hPa 0,0 l/m 0 min 0 min 0 W/m 0,0 km/h (0 Bft) 100,00 %
13.09.2018 22:50 12,6 C 11,1 C 11,1 C 83 % 1019,2 hPa 0,0 l/m 0 min 0 min 0 W/m 0,0 km/h (0 Bft) 100,00 %
13.09.2018 22:52 12,6 C 11,1 C 11,1 C 83 % 1019,2 hPa 0,0 l/m 0 min 0 min 0 W/m 0,0 km/h (0 Bft) 100,00 %
13.09.2018 22:54 12,5 C 11,1 C 11,1 C 83 % 1019,2 hPa 0,0 l/m 0 min 0 min 0 W/m 0,0 km/h (0 Bft) 100,00 %
13.09.2018 22:56 12,5 C 11,1 C 11,1 C 83 % 1019,2 hPa 0,0 l/m 0 min 0 min 0 W/m 0,0 km/h (0 Bft) 97,87 %
13.09.2018 22:58 12,4 C 11,1 C 11,1 C 83 % 1019,3 hPa 0,0 l/m 0 min 0 min 0 W/m 0,0 km/h (0 Bft) 97,87 %
13.09.2018 23:00 12,4 C 11,1 C 11,1 C 83 % 1019,2 hPa 0,0 l/m 0 min 0 min 0 W/m 0,0 km/h (0 Bft) 97,87 %
13.09.2018 23:02 12,4 C 11,1 C 11,1 C 83 % 1019,2 hPa 0,0 l/m 0 min 0 min 0 W/m 0,0 km/h (0 Bft) 97,87 %
13.09.2018 23:04 12,3 C 10,6 C 10,6 C 83 % 1019,3 hPa 0,0 l/m 0 min 0 min 0 W/m 0,0 km/h (0 Bft) 97,83 %
13.09.2018 23:06 12,3 C 10,6 C 10,6 C 83 % 1019,3 hPa 0,0 l/m 0 min 0 min 0 W/m 0,0 km/h (0 Bft) 97,87 %
13.09.2018 23:08 12,2 C 11,1 C 10,6 C 83 % 1019,3 hPa 0,0 l/m 0 min 0 min 0 W/m 0,0 km/h (0 Bft) 97,87 %
13.09.2018 23:10 12,2 C 11,1 C 10,6 C 83 % 1019,3 hPa 0,0 l/m 0 min 0 min 0 W/m 0,0 km/h (0 Bft) 95,74 %
13.09.2018 23:12 12,2 C 11,1 C 10,6 C 83 % 1019,3 hPa 0,0 l/m 0 min 0 min 0 W/m 0,0 km/h (0 Bft) 95,74 %
13.09.2018 23:14 12,1 C 11,1 C 10,6 C 83 % 1019,3 hPa 0,0 l/m 0 min 0 min 0 W/m 0,0 km/h (0 Bft) 95,65 %
13.09.2018 23:17 12,1 C 10,6 C 10,6 C 83 % 1019,3 hPa 0,0 l/m 0 min 0 min 0 W/m 0,0 km/h (0 Bft) 97,30 %
13.09.2018 23:18 12,1 C 10,6 C 10,6 C 83 % 1019,3 hPa 0,0 l/m 0 min 0 min 0 W/m 0,0 km/h (0 Bft) 90,91 %
13.09.2018 23:20 12,0 C 10,6 C 10,6 C 83 % 1019,3 hPa 0,0 l/m 0 min 0 min 0 W/m 0,0 km/h (0 Bft) 95,74 %
13.09.2018 23:22 12,0 C 10,6 C 10,6 C 83 % 1019,4 hPa 0,0 l/m 0 min 0 min 0 W/m 0,0 km/h (0 Bft) 93,62 %
13.09.2018 23:24 11,9 C 10,6 C 10,6 C 83 % 1019,4 hPa 0,0 l/m 0 min 0 min 0 W/m 0,0 km/h (0 Bft) 93,62 %
13.09.2018 23:26 11,9 C 10,6 C 10,6 C 83 % 1019,3 hPa 0,0 l/m 0 min 0 min 0 W/m 0,0 km/h (0 Bft) 95,74 %
13.09.2018 23:28 11,9 C 10,6 C 10,6 C 83 % 1019,3 hPa 0,0 l/m 0 min 0 min 0 W/m 0,0 km/h (0 Bft) 95,65 %
13.09.2018 23:30 11,8 C 10,6 C 10,6 C 83 % 1019,3 hPa 0,0 l/m 0 min 0 min 0 W/m 0,0 km/h (0 Bft) 95,74 %
13.09.2018 23:32 11,8 C 10,6 C 10,6 C 83 % 1019,3 hPa 0,0 l/m 0 min 0 min 0 W/m 0,0 km/h (0 Bft) 92,59 %
13.09.2018 23:34 11,8 C 10,6 C 10,6 C 83 % 1019,3 hPa 0,0 l/m 0 min 0 min 0 W/m 0,0 km/h (0 Bft) 95,74 %
13.09.2018 23:36 11,7 C 10,6 C 10,6 C 84 % 1019,3 hPa 0,0 l/m 0 min 0 min 0 W/m 0,0 km/h (0 Bft) 95,83 %
13.09.2018 23:38 11,7 C 10,6 C 10,6 C 84 % 1019,3 hPa 0,0 l/m 0 min 0 min 0 W/m 0,0 km/h (0 Bft) 95,74 %
13.09.2018 23:40 11,7 C 10,6 C 10,6 C 84 % 1019,3 hPa 0,0 l/m 0 min 0 min 0 W/m 0,0 km/h (0 Bft) 95,74 %
13.09.2018 23:42 11,6 C 10,6 C 10,6 C 84 % 1019,3 hPa 0,0 l/m 0 min 0 min 0 W/m 0,0 km/h (0 Bft) 95,65 %
13.09.2018 23:44 11,6 C 10,6 C 10,6 C 84 % 1019,2 hPa 0,0 l/m 0 min 0 min 0 W/m 0,0 km/h (0 Bft) 93,62 %
13.09.2018 23:46 11,6 C 10,6 C 10,6 C 84 % 1019,3 hPa 0,0 l/m 0 min 0 min 0 W/m 0,0 km/h (0 Bft) 93,62 %
13.09.2018 23:48 11,6 C 10,6 C 10,6 C 84 % 1019,2 hPa 0,0 l/m 0 min 0 min 0 W/m 0,0 km/h (0 Bft) 93,62 %
13.09.2018 23:50 11,5 C 10,6 C 10,6 C 84 % 1019,2 hPa 0,0 l/m 0 min 0 min 0 W/m 0,0 km/h (0 Bft) 97,87 %
13.09.2018 23:52 11,5 C 10,6 C 10,6 C 84 % 1019,3 hPa 0,0 l/m 0 min 0 min 0 W/m 0,0 km/h (0 Bft) 97,83 %
13.09.2018 23:54 11,4 C 10,6 C 10,6 C 84 % 1019,3 hPa 0,0 l/m 0 min 0 min 0 W/m 0,0 km/h (0 Bft) 97,87 %
13.09.2018 23:56 11,4 C 10,6 C 10,6 C 84 % 1019,3 hPa 0,0 l/m 0 min 0 min 0 W/m 0,0 km/h (0 Bft) 100,00 %
13.09.2018 23:58 11,4 C 10,6 C 10,6 C 84 % 1019,3 hPa 0,0 l/m 0 min 0 min 0 W/m 0,0 km/h (0 Bft) 97,87 %
_ Min-Zeit 23:54 23:04 22:36 17:52 18:12 - - - - 00:10 07:38
Minimum _ 11,4 C 10,6 C 10,6 C 64 % 1018,0 hPa - - - - 0,0 km/h (0 Bft) 89,36 %
_ Max-Zeit 16:44 16:28 16:02 09:18 00:00 02:24 13:08 04:05 14:02 12:44 00:46
Maximum _ 19,5 C 22,2 C 17,8 C 98 % 1020,1 hPa 0,2 l/m 2 min 5 min 782 W/m 15,8 km/h
O (3 Bft)
100,00 %
Durchschnitt _ 15,4 C 14,7 C 14,0 C 85 % 1019,0 hPa #1,6 l/m #3:06 h #3:22 h 188 W/m 3,6 km/h (1 Bft) 97,51 %
© 2018 W. Hausmann